<?xml version="1.0" encoding="UTF-8" standalone="no" ?>
<gpx xmlns="http://www.topografix.com/GPX/1/1" xmlns:xsi="http://www.w3.org/2001/XMLSchema-instance" xsi:schemaLocation="http://www.topografix.com/GPX/1/1 http://www.topografix.com/GPX/1/1/gpx.xsd" version="1.1" creator="VisuGPX - https://www.visugpx.com">
  <metadata>
    <name>GR128 De Wissant (Pas-de-Calais) à Watten (Nord) (2019)</name>
    <desc><![CDATA[PROJET W]]></desc>
  </metadata>
  <trk>
    <name><![CDATA[GR128 De Wissant (Pas-de-Calais) à Bailleul (Nord) (2019)]]></name>
    <cmt><![CDATA[Randonnée avec le GR128 à travers le Pas de Calais et le Nord de Wissant à Bailleull. Gîtes d'étapes, Chambres d'hôtes, Hôtels, Camping, Refuges, Auberges.]]></cmt>
    <desc><![CDATA[Randonnée avec le GR128 à travers le Pas de Calais et le Nord de Wissant à Bailleull. Gîtes d'étapes, Chambres d'hôtes, Hôtels, Camping, Refuges, Auberges.]]></desc>
    <trkseg>
      <trkpt lat="50.88425" lon="1.66629">
        <ele>16.738</ele>
        <time>2016-11-17T19:07:24Z</time>
      </trkpt>
      <trkpt lat="50.88314" lon="1.66753">
        <ele>18.67</ele>
        <time>2016-11-17T19:07:44Z</time>
      </trkpt>
      <trkpt lat="50.88281" lon="1.66914">
        <ele>20.717</ele>
        <time>2016-11-17T19:08:04Z</time>
      </trkpt>
      <trkpt lat="50.88265" lon="1.66996">
        <ele>21.508</ele>
        <time>2016-11-17T19:08:24Z</time>
      </trkpt>
      <trkpt lat="50.88187" lon="1.67137">
        <ele>21.196</ele>
        <time>2016-11-17T19:08:44Z</time>
      </trkpt>
      <trkpt lat="50.88032" lon="1.67296">
        <ele>26.262</ele>
        <time>2016-11-17T19:09:04Z</time>
      </trkpt>
      <trkpt lat="50.87939" lon="1.67373">
        <ele>29.069</ele>
        <time>2016-11-17T19:09:24Z</time>
      </trkpt>
      <trkpt lat="50.87911" lon="1.67453">
        <ele>31.754</ele>
        <time>2016-11-17T19:09:44Z</time>
      </trkpt>
      <trkpt lat="50.87897" lon="1.67517">
        <ele>33.432</ele>
        <time>2016-11-17T19:10:04Z</time>
      </trkpt>
      <trkpt lat="50.87897" lon="1.67517">
        <ele>33.434</ele>
        <time>2016-11-17T19:10:24Z</time>
      </trkpt>
      <trkpt lat="50.87798" lon="1.6741">
        <ele>42.147</ele>
        <time>2016-11-17T19:10:44Z</time>
      </trkpt>
      <trkpt lat="50.87755" lon="1.67329">
        <ele>45.749</ele>
        <time>2016-11-17T19:11:04Z</time>
      </trkpt>
      <trkpt lat="50.87712" lon="1.67292">
        <ele>47.449</ele>
        <time>2016-11-17T19:11:24Z</time>
      </trkpt>
      <trkpt lat="50.87637" lon="1.67269">
        <ele>48.402</ele>
        <time>2016-11-17T19:11:44Z</time>
      </trkpt>
      <trkpt lat="50.87582" lon="1.67235">
        <ele>49.922</ele>
        <time>2016-11-17T19:12:04Z</time>
      </trkpt>
      <trkpt lat="50.8748" lon="1.6737">
        <ele>47.708</ele>
        <time>2016-11-17T19:12:24Z</time>
      </trkpt>
      <trkpt lat="50.87255" lon="1.67537">
        <ele>45.567</ele>
        <time>2016-11-17T19:12:44Z</time>
      </trkpt>
      <trkpt lat="50.86926" lon="1.67797">
        <ele>46.363</ele>
        <time>2016-11-17T19:13:04Z</time>
      </trkpt>
      <trkpt lat="50.86766" lon="1.67973">
        <ele>43.07</ele>
        <time>2016-11-17T19:13:24Z</time>
      </trkpt>
      <trkpt lat="50.86581" lon="1.68076">
        <ele>44.685</ele>
        <time>2016-11-17T19:13:44Z</time>
      </trkpt>
      <trkpt lat="50.86577" lon="1.68196">
        <ele>45.853</ele>
        <time>2016-11-17T19:14:04Z</time>
      </trkpt>
      <trkpt lat="50.86623" lon="1.68468">
        <ele>49.475</ele>
        <time>2016-11-17T19:14:24Z</time>
      </trkpt>
      <trkpt lat="50.86624" lon="1.68541">
        <ele>49.068</ele>
        <time>2016-11-17T19:14:44Z</time>
      </trkpt>
      <trkpt lat="50.86669" lon="1.68649">
        <ele>51.03</ele>
        <time>2016-11-17T19:15:04Z</time>
      </trkpt>
      <trkpt lat="50.86701" lon="1.68799">
        <ele>53.678</ele>
        <time>2016-11-17T19:15:24Z</time>
      </trkpt>
      <trkpt lat="50.86705" lon="1.68863">
        <ele>55.133</ele>
        <time>2016-11-17T19:15:44Z</time>
      </trkpt>
      <trkpt lat="50.86742" lon="1.6908">
        <ele>58.326</ele>
        <time>2016-11-17T19:16:04Z</time>
      </trkpt>
      <trkpt lat="50.86762" lon="1.69181">
        <ele>61.008</ele>
        <time>2016-11-17T19:16:24Z</time>
      </trkpt>
      <trkpt lat="50.86704" lon="1.69378">
        <ele>65.84</ele>
        <time>2016-11-17T19:16:44Z</time>
      </trkpt>
      <trkpt lat="50.86734" lon="1.69565">
        <ele>78.236</ele>
        <time>2016-11-17T19:17:04Z</time>
      </trkpt>
      <trkpt lat="50.86746" lon="1.69721">
        <ele>85.083</ele>
        <time>2016-11-17T19:17:24Z</time>
      </trkpt>
      <trkpt lat="50.86727" lon="1.69878">
        <ele>88.878</ele>
        <time>2016-11-17T19:17:44Z</time>
      </trkpt>
      <trkpt lat="50.86719" lon="1.70026">
        <ele>92.826</ele>
        <time>2016-11-17T19:18:04Z</time>
      </trkpt>
      <trkpt lat="50.86704" lon="1.70084">
        <ele>93.728</ele>
        <time>2016-11-17T19:18:24Z</time>
      </trkpt>
      <trkpt lat="50.86684" lon="1.70191">
        <ele>94.271</ele>
        <time>2016-11-17T19:18:44Z</time>
      </trkpt>
      <trkpt lat="50.86441" lon="1.70646">
        <ele>95.233</ele>
        <time>2016-11-17T19:19:04Z</time>
      </trkpt>
      <trkpt lat="50.86441" lon="1.70646">
        <ele>95.266</ele>
        <time>2016-11-17T19:19:24Z</time>
      </trkpt>
      <trkpt lat="50.86468" lon="1.70917">
        <ele>106.629</ele>
        <time>2016-11-17T19:19:44Z</time>
      </trkpt>
      <trkpt lat="50.86479" lon="1.71189">
        <ele>123.521</ele>
        <time>2016-11-17T19:20:04Z</time>
      </trkpt>
      <trkpt lat="50.86521" lon="1.71294">
        <ele>131.808</ele>
        <time>2016-11-17T19:20:24Z</time>
      </trkpt>
      <trkpt lat="50.86546" lon="1.71646">
        <ele>153.619</ele>
        <time>2016-11-17T19:20:44Z</time>
      </trkpt>
      <trkpt lat="50.86571" lon="1.71749">
        <ele>159.565</ele>
        <time>2016-11-17T19:21:04Z</time>
      </trkpt>
      <trkpt lat="50.86597" lon="1.71786">
        <ele>160.542</ele>
        <time>2016-11-17T19:21:24Z</time>
      </trkpt>
      <trkpt lat="50.86628" lon="1.71631">
        <ele>156.987</ele>
        <time>2016-11-17T19:21:44Z</time>
      </trkpt>
      <trkpt lat="50.86674" lon="1.71455">
        <ele>158.025</ele>
        <time>2016-11-17T19:22:04Z</time>
      </trkpt>
      <trkpt lat="50.86711" lon="1.71245">
        <ele>157.457</ele>
        <time>2016-11-17T19:22:24Z</time>
      </trkpt>
      <trkpt lat="50.86741" lon="1.7114">
        <ele>155.46</ele>
        <time>2016-11-17T19:22:44Z</time>
      </trkpt>
      <trkpt lat="50.86742" lon="1.71095">
        <ele>154.482</ele>
        <time>2016-11-17T19:23:04Z</time>
      </trkpt>
      <trkpt lat="50.86926" lon="1.70741">
        <ele>154.144</ele>
        <time>2016-11-17T19:23:24Z</time>
      </trkpt>
      <trkpt lat="50.8699" lon="1.70552">
        <ele>153.605</ele>
        <time>2016-11-17T19:23:44Z</time>
      </trkpt>
      <trkpt lat="50.87072" lon="1.70417">
        <ele>155.415</ele>
        <time>2016-11-17T19:24:04Z</time>
      </trkpt>
      <trkpt lat="50.87052" lon="1.70357">
        <ele>154.808</ele>
        <time>2016-11-17T19:24:24Z</time>
      </trkpt>
      <trkpt lat="50.87102" lon="1.70344">
        <ele>149.217</ele>
        <time>2016-11-17T19:24:44Z</time>
      </trkpt>
      <trkpt lat="50.87132" lon="1.70307">
        <ele>140.933</ele>
        <time>2016-11-17T19:25:04Z</time>
      </trkpt>
      <trkpt lat="50.87182" lon="1.70189">
        <ele>126.41</ele>
        <time>2016-11-17T19:25:24Z</time>
      </trkpt>
      <trkpt lat="50.87262" lon="1.70179">
        <ele>124.665</ele>
        <time>2016-11-17T19:25:44Z</time>
      </trkpt>
      <trkpt lat="50.87311" lon="1.69777">
        <ele>95.013</ele>
        <time>2016-11-17T19:26:04Z</time>
      </trkpt>
      <trkpt lat="50.87429" lon="1.69822">
        <ele>94.915</ele>
        <time>2016-11-17T19:26:24Z</time>
      </trkpt>
      <trkpt lat="50.87564" lon="1.69844">
        <ele>86.818</ele>
        <time>2016-11-17T19:26:44Z</time>
      </trkpt>
      <trkpt lat="50.87649" lon="1.69878">
        <ele>87.29</ele>
        <time>2016-11-17T19:27:04Z</time>
      </trkpt>
      <trkpt lat="50.87759" lon="1.6988">
        <ele>84.721</ele>
        <time>2016-11-17T19:27:24Z</time>
      </trkpt>
      <trkpt lat="50.87817" lon="1.69835">
        <ele>83.041</ele>
        <time>2016-11-17T19:27:44Z</time>
      </trkpt>
      <trkpt lat="50.87895" lon="1.69738">
        <ele>80.905</ele>
        <time>2016-11-17T19:28:04Z</time>
      </trkpt>
      <trkpt lat="50.87983" lon="1.69718">
        <ele>77.508</ele>
        <time>2016-11-17T19:28:24Z</time>
      </trkpt>
      <trkpt lat="50.88375" lon="1.69545">
        <ele>74.395</ele>
        <time>2016-11-17T19:28:44Z</time>
      </trkpt>
      <trkpt lat="50.88484" lon="1.69384">
        <ele>63.581</ele>
        <time>2016-11-17T19:29:04Z</time>
      </trkpt>
      <trkpt lat="50.88718" lon="1.6933">
        <ele>57.058</ele>
        <time>2016-11-17T19:29:24Z</time>
      </trkpt>
      <trkpt lat="50.88824" lon="1.69332">
        <ele>46.963</ele>
        <time>2016-11-17T19:29:44Z</time>
      </trkpt>
      <trkpt lat="50.88846" lon="1.69214">
        <ele>40.321</ele>
        <time>2016-11-17T19:30:04Z</time>
      </trkpt>
      <trkpt lat="50.88875" lon="1.69188">
        <ele>39.753</ele>
        <time>2016-11-17T19:30:24Z</time>
      </trkpt>
      <trkpt lat="50.88938" lon="1.69169">
        <ele>38.426</ele>
        <time>2016-11-17T19:30:44Z</time>
      </trkpt>
      <trkpt lat="50.88978" lon="1.6913">
        <ele>36.888</ele>
        <time>2016-11-17T19:31:04Z</time>
      </trkpt>
      <trkpt lat="50.89085" lon="1.69169">
        <ele>28.995</ele>
        <time>2016-11-17T19:31:24Z</time>
      </trkpt>
      <trkpt lat="50.89156" lon="1.69212">
        <ele>27.749</ele>
        <time>2016-11-17T19:31:44Z</time>
      </trkpt>
      <trkpt lat="50.89172" lon="1.69163">
        <ele>27.923</ele>
        <time>2016-11-17T19:32:04Z</time>
      </trkpt>
      <trkpt lat="50.89375" lon="1.68931">
        <ele>31.208</ele>
        <time>2016-11-17T19:32:24Z</time>
      </trkpt>
      <trkpt lat="50.89495" lon="1.6918">
        <ele>46.292</ele>
        <time>2016-11-17T19:32:44Z</time>
      </trkpt>
      <trkpt lat="50.89773" lon="1.69581">
        <ele>72.768</ele>
        <time>2016-11-17T19:33:04Z</time>
      </trkpt>
      <trkpt lat="50.89872" lon="1.69605">
        <ele>66.955</ele>
        <time>2016-11-17T19:33:24Z</time>
      </trkpt>
      <trkpt lat="50.8997" lon="1.69708">
        <ele>63.55</ele>
        <time>2016-11-17T19:33:44Z</time>
      </trkpt>
      <trkpt lat="50.90046" lon="1.69768">
        <ele>65.668</ele>
        <time>2016-11-17T19:34:04Z</time>
      </trkpt>
      <trkpt lat="50.90098" lon="1.698">
        <ele>67.15</ele>
        <time>2016-11-17T19:34:24Z</time>
      </trkpt>
      <trkpt lat="50.9018" lon="1.69879">
        <ele>69.093</ele>
        <time>2016-11-17T19:34:44Z</time>
      </trkpt>
      <trkpt lat="50.90287" lon="1.7001">
        <ele>67.925</ele>
        <time>2016-11-17T19:35:04Z</time>
      </trkpt>
      <trkpt lat="50.90317" lon="1.701">
        <ele>69.645</ele>
        <time>2016-11-17T19:35:24Z</time>
      </trkpt>
      <trkpt lat="50.90351" lon="1.70285">
        <ele>79.047</ele>
        <time>2016-11-17T19:35:44Z</time>
      </trkpt>
      <trkpt lat="50.90383" lon="1.70366">
        <ele>83.411</ele>
        <time>2016-11-17T19:36:04Z</time>
      </trkpt>
      <trkpt lat="50.90447" lon="1.70478">
        <ele>91.408</ele>
        <time>2016-11-17T19:36:24Z</time>
      </trkpt>
      <trkpt lat="50.90564" lon="1.7089">
        <ele>110.037</ele>
        <time>2016-11-17T19:36:44Z</time>
      </trkpt>
      <trkpt lat="50.90586" lon="1.71023">
        <ele>104.793</ele>
        <time>2016-11-17T19:37:04Z</time>
      </trkpt>
      <trkpt lat="50.91015" lon="1.71785">
        <ele>80.54</ele>
        <time>2016-11-17T19:37:24Z</time>
      </trkpt>
      <trkpt lat="50.91154" lon="1.71853">
        <ele>75.335</ele>
        <time>2016-11-17T19:37:44Z</time>
      </trkpt>
      <trkpt lat="50.91187" lon="1.71896">
        <ele>75.863</ele>
        <time>2016-11-17T19:38:04Z</time>
      </trkpt>
      <trkpt lat="50.91194" lon="1.71943">
        <ele>75.115</ele>
        <time>2016-11-17T19:38:24Z</time>
      </trkpt>
      <trkpt lat="50.91245" lon="1.72089">
        <ele>72.448</ele>
        <time>2016-11-17T19:38:44Z</time>
      </trkpt>
      <trkpt lat="50.91271" lon="1.72119">
        <ele>69.62</ele>
        <time>2016-11-17T19:39:04Z</time>
      </trkpt>
      <trkpt lat="50.91346" lon="1.72184">
        <ele>60.156</ele>
        <time>2016-11-17T19:39:24Z</time>
      </trkpt>
      <trkpt lat="50.91403" lon="1.72295">
        <ele>55.559</ele>
        <time>2016-11-17T19:39:44Z</time>
      </trkpt>
      <trkpt lat="50.91421" lon="1.72362">
        <ele>54.214</ele>
        <time>2016-11-17T19:40:04Z</time>
      </trkpt>
      <trkpt lat="50.91421" lon="1.72362">
        <ele>54.208</ele>
        <time>2016-11-17T19:40:24Z</time>
      </trkpt>
      <trkpt lat="50.91409" lon="1.72502">
        <ele>57.858</ele>
        <time>2016-11-17T19:40:44Z</time>
      </trkpt>
      <trkpt lat="50.91427" lon="1.72638">
        <ele>62.754</ele>
        <time>2016-11-17T19:41:04Z</time>
      </trkpt>
      <trkpt lat="50.91479" lon="1.72625">
        <ele>66.571</ele>
        <time>2016-11-17T19:41:24Z</time>
      </trkpt>
      <trkpt lat="50.91521" lon="1.72494">
        <ele>70.786</ele>
        <time>2016-11-17T19:41:44Z</time>
      </trkpt>
      <trkpt lat="50.91577" lon="1.72412">
        <ele>73.444</ele>
        <time>2016-11-17T19:42:04Z</time>
      </trkpt>
      <trkpt lat="50.91742" lon="1.72417">
        <ele>87.426</ele>
        <time>2016-11-17T19:42:44Z</time>
      </trkpt>
      <trkpt lat="50.91861" lon="1.72487">
        <ele>99.639</ele>
        <time>2016-11-17T19:43:04Z</time>
      </trkpt>
      <trkpt lat="50.91994" lon="1.7264">
        <ele>114.811</ele>
        <time>2016-11-17T19:43:24Z</time>
      </trkpt>
      <trkpt lat="50.92463" lon="1.73155">
        <ele>132.826</ele>
        <time>2016-11-17T19:43:44Z</time>
      </trkpt>
      <trkpt lat="50.92497" lon="1.73129">
        <ele>135.847</ele>
        <time>2016-11-17T19:44:04Z</time>
      </trkpt>
      <trkpt lat="50.9255" lon="1.7311">
        <ele>133.711</ele>
        <time>2016-11-17T19:44:24Z</time>
      </trkpt>
      <trkpt lat="50.92579" lon="1.73316">
        <ele>133.308</ele>
        <time>2016-11-17T19:44:44Z</time>
      </trkpt>
      <trkpt lat="50.92623" lon="1.73427">
        <ele>134.885</ele>
        <time>2016-11-17T19:45:04Z</time>
      </trkpt>
      <trkpt lat="50.92675" lon="1.73468">
        <ele>134.081</ele>
        <time>2016-11-17T19:45:24Z</time>
      </trkpt>
      <trkpt lat="50.92749" lon="1.73474">
        <ele>130.238</ele>
        <time>2016-11-17T19:45:44Z</time>
      </trkpt>
      <trkpt lat="50.92776" lon="1.73545">
        <ele>126.753</ele>
        <time>2016-11-17T19:46:04Z</time>
      </trkpt>
      <trkpt lat="50.92764" lon="1.73571">
        <ele>130.841</ele>
        <time>2016-11-17T19:46:24Z</time>
      </trkpt>
      <trkpt lat="50.92781" lon="1.73616">
        <ele>128.063</ele>
        <time>2016-11-17T19:46:44Z</time>
      </trkpt>
      <trkpt lat="50.92795" lon="1.73674">
        <ele>126.226</ele>
        <time>2016-11-17T19:47:04Z</time>
      </trkpt>
      <trkpt lat="50.92881" lon="1.73828">
        <ele>122.658</ele>
        <time>2016-11-17T19:47:24Z</time>
      </trkpt>
      <trkpt lat="50.92919" lon="1.73908">
        <ele>121.273</ele>
        <time>2016-11-17T19:47:44Z</time>
      </trkpt>
      <trkpt lat="50.92959" lon="1.7394">
        <ele>116.285</ele>
        <time>2016-11-17T19:48:04Z</time>
      </trkpt>
      <trkpt lat="50.92975" lon="1.74007">
        <ele>116.013</ele>
        <time>2016-11-17T19:48:24Z</time>
      </trkpt>
      <trkpt lat="50.92991" lon="1.74039">
        <ele>115.408</ele>
        <time>2016-11-17T19:48:44Z</time>
      </trkpt>
      <trkpt lat="50.93037" lon="1.74189">
        <ele>114.37</ele>
        <time>2016-11-17T19:49:04Z</time>
      </trkpt>
      <trkpt lat="50.93048" lon="1.74266">
        <ele>113.396</ele>
        <time>2016-11-17T19:49:24Z</time>
      </trkpt>
      <trkpt lat="50.93045" lon="1.74363">
        <ele>111.733</ele>
        <time>2016-11-17T19:49:44Z</time>
      </trkpt>
      <trkpt lat="50.93019" lon="1.7447">
        <ele>109.368</ele>
        <time>2016-11-17T19:50:04Z</time>
      </trkpt>
      <trkpt lat="50.92945" lon="1.74633">
        <ele>105.146</ele>
        <time>2016-11-17T19:50:24Z</time>
      </trkpt>
      <trkpt lat="50.92945" lon="1.74702">
        <ele>101.418</ele>
        <time>2016-11-17T19:50:44Z</time>
      </trkpt>
      <trkpt lat="50.92976" lon="1.74807">
        <ele>96.591</ele>
        <time>2016-11-17T19:51:04Z</time>
      </trkpt>
      <trkpt lat="50.92956" lon="1.74878">
        <ele>95.153</ele>
        <time>2016-11-17T19:51:24Z</time>
      </trkpt>
      <trkpt lat="50.92887" lon="1.74996">
        <ele>87.976</ele>
        <time>2016-11-17T19:51:44Z</time>
      </trkpt>
      <trkpt lat="50.92827" lon="1.75071">
        <ele>85.89</ele>
        <time>2016-11-17T19:52:04Z</time>
      </trkpt>
      <trkpt lat="50.92823" lon="1.75161">
        <ele>83.619</ele>
        <time>2016-11-17T19:52:24Z</time>
      </trkpt>
      <trkpt lat="50.92849" lon="1.75238">
        <ele>82.008</ele>
        <time>2016-11-17T19:52:44Z</time>
      </trkpt>
      <trkpt lat="50.9299" lon="1.7556">
        <ele>88.63</ele>
        <time>2016-11-17T19:53:04Z</time>
      </trkpt>
      <trkpt lat="50.92969" lon="1.75672">
        <ele>89.996</ele>
        <time>2016-11-17T19:53:24Z</time>
      </trkpt>
      <trkpt lat="50.92904" lon="1.75923">
        <ele>86.853</ele>
        <time>2016-11-17T19:53:44Z</time>
      </trkpt>
      <trkpt lat="50.92921" lon="1.76043">
        <ele>84.458</ele>
        <time>2016-11-17T19:54:04Z</time>
      </trkpt>
      <trkpt lat="50.9293" lon="1.76187">
        <ele>82.526</ele>
        <time>2016-11-17T19:54:24Z</time>
      </trkpt>
      <trkpt lat="50.92976" lon="1.76382">
        <ele>78.568</ele>
        <time>2016-11-17T19:54:44Z</time>
      </trkpt>
      <trkpt lat="50.92986" lon="1.76481">
        <ele>78.251</ele>
        <time>2016-11-17T19:55:04Z</time>
      </trkpt>
      <trkpt lat="50.92984" lon="1.76614">
        <ele>77.183</ele>
        <time>2016-11-17T19:55:24Z</time>
      </trkpt>
      <trkpt lat="50.92998" lon="1.7668">
        <ele>76.239</ele>
        <time>2016-11-17T19:55:44Z</time>
      </trkpt>
      <trkpt lat="50.93015" lon="1.76742">
        <ele>74.101</ele>
        <time>2016-11-17T19:56:04Z</time>
      </trkpt>
      <trkpt lat="50.93017" lon="1.76966">
        <ele>68.321</ele>
        <time>2016-11-17T19:56:24Z</time>
      </trkpt>
      <trkpt lat="50.93005" lon="1.77086">
        <ele>66.308</ele>
        <time>2016-11-17T19:56:44Z</time>
      </trkpt>
      <trkpt lat="50.93006" lon="1.77163">
        <ele>62.156</ele>
        <time>2016-11-17T19:57:04Z</time>
      </trkpt>
      <trkpt lat="50.92994" lon="1.77229">
        <ele>58.742</ele>
        <time>2016-11-17T19:57:24Z</time>
      </trkpt>
      <trkpt lat="50.92933" lon="1.77275">
        <ele>63.289</ele>
        <time>2016-11-17T19:57:44Z</time>
      </trkpt>
      <trkpt lat="50.92917" lon="1.77311">
        <ele>62.814</ele>
        <time>2016-11-17T19:58:04Z</time>
      </trkpt>
      <trkpt lat="50.92938" lon="1.77727">
        <ele>56.582</ele>
        <time>2016-11-17T19:58:24Z</time>
      </trkpt>
      <trkpt lat="50.92516" lon="1.7777">
        <ele>33.094</ele>
        <time>2016-11-17T19:58:44Z</time>
      </trkpt>
      <trkpt lat="50.92484" lon="1.77742">
        <ele>33.077</ele>
        <time>2016-11-17T19:59:04Z</time>
      </trkpt>
      <trkpt lat="50.92418" lon="1.77657">
        <ele>34.439</ele>
        <time>2016-11-17T19:59:24Z</time>
      </trkpt>
      <trkpt lat="50.92043" lon="1.77262">
        <ele>51.788</ele>
        <time>2016-11-17T19:59:44Z</time>
      </trkpt>
      <trkpt lat="50.91921" lon="1.77182">
        <ele>55.824</ele>
        <time>2016-11-17T20:00:04Z</time>
      </trkpt>
      <trkpt lat="50.91753" lon="1.77174">
        <ele>50.426</ele>
        <time>2016-11-17T20:00:24Z</time>
      </trkpt>
      <trkpt lat="50.91656" lon="1.7715">
        <ele>44.108</ele>
        <time>2016-11-17T20:00:44Z</time>
      </trkpt>
      <trkpt lat="50.91605" lon="1.77416">
        <ele>38.591</ele>
        <time>2016-11-17T20:01:04Z</time>
      </trkpt>
      <trkpt lat="50.91441" lon="1.77738">
        <ele>28.417</ele>
        <time>2016-11-17T20:01:24Z</time>
      </trkpt>
      <trkpt lat="50.91349" lon="1.77869">
        <ele>24.974</ele>
        <time>2016-11-17T20:01:44Z</time>
      </trkpt>
      <trkpt lat="50.91188" lon="1.78219">
        <ele>38.559</ele>
        <time>2016-11-17T20:02:04Z</time>
      </trkpt>
      <trkpt lat="50.91116" lon="1.78335">
        <ele>42.587</ele>
        <time>2016-11-17T20:02:24Z</time>
      </trkpt>
      <trkpt lat="50.90984" lon="1.78221">
        <ele>47.249</ele>
        <time>2016-11-17T20:02:44Z</time>
      </trkpt>
      <trkpt lat="50.90901" lon="1.7809">
        <ele>51.662</ele>
        <time>2016-11-17T20:03:04Z</time>
      </trkpt>
      <trkpt lat="50.90595" lon="1.77448">
        <ele>51.584</ele>
        <time>2016-11-17T20:03:24Z</time>
      </trkpt>
      <trkpt lat="50.90395" lon="1.77154">
        <ele>53.296</ele>
        <time>2016-11-17T20:03:44Z</time>
      </trkpt>
      <trkpt lat="50.90321" lon="1.76983">
        <ele>58.831</ele>
        <time>2016-11-17T20:04:04Z</time>
      </trkpt>
      <trkpt lat="50.90429" lon="1.7689">
        <ele>66.424</ele>
        <time>2016-11-17T20:04:24Z</time>
      </trkpt>
      <trkpt lat="50.90411" lon="1.76848">
        <ele>67.108</ele>
        <time>2016-11-17T20:04:44Z</time>
      </trkpt>
      <trkpt lat="50.90321" lon="1.76912">
        <ele>60.692</ele>
        <time>2016-11-17T20:05:04Z</time>
      </trkpt>
      <trkpt lat="50.90142" lon="1.77099">
        <ele>58.528</ele>
        <time>2016-11-17T20:05:24Z</time>
      </trkpt>
      <trkpt lat="50.90065" lon="1.77139">
        <ele>54.345</ele>
        <time>2016-11-17T20:05:44Z</time>
      </trkpt>
      <trkpt lat="50.8999" lon="1.77163">
        <ele>47.66</ele>
        <time>2016-11-17T20:06:04Z</time>
      </trkpt>
      <trkpt lat="50.89583" lon="1.77111">
        <ele>59.128</ele>
        <time>2016-11-17T20:06:24Z</time>
      </trkpt>
      <trkpt lat="50.89507" lon="1.77077">
        <ele>69.91</ele>
        <time>2016-11-17T20:06:44Z</time>
      </trkpt>
      <trkpt lat="50.89442" lon="1.77111">
        <ele>77.973</ele>
        <time>2016-11-17T20:07:04Z</time>
      </trkpt>
      <trkpt lat="50.89277" lon="1.7727">
        <ele>83.685</ele>
        <time>2016-11-17T20:07:24Z</time>
      </trkpt>
      <trkpt lat="50.89146" lon="1.77272">
        <ele>80.822</ele>
        <time>2016-11-17T20:07:44Z</time>
      </trkpt>
      <trkpt lat="50.89002" lon="1.77393">
        <ele>67.262</ele>
        <time>2016-11-17T20:08:04Z</time>
      </trkpt>
      <trkpt lat="50.88998" lon="1.77549">
        <ele>63.508</ele>
        <time>2016-11-17T20:08:24Z</time>
      </trkpt>
      <trkpt lat="50.88906" lon="1.77732">
        <ele>71.408</ele>
        <time>2016-11-17T20:08:44Z</time>
      </trkpt>
      <trkpt lat="50.88887" lon="1.77847">
        <ele>72.125</ele>
        <time>2016-11-17T20:09:04Z</time>
      </trkpt>
      <trkpt lat="50.88805" lon="1.78133">
        <ele>78.041</ele>
        <time>2016-11-17T20:09:24Z</time>
      </trkpt>
      <trkpt lat="50.88786" lon="1.78189">
        <ele>77.218</ele>
        <time>2016-11-17T20:09:44Z</time>
      </trkpt>
      <trkpt lat="50.88726" lon="1.78262">
        <ele>73.733</ele>
        <time>2016-11-17T20:10:04Z</time>
      </trkpt>
      <trkpt lat="50.88669" lon="1.78302">
        <ele>70.211</ele>
        <time>2016-11-17T20:10:24Z</time>
      </trkpt>
      <trkpt lat="50.88617" lon="1.7835">
        <ele>67.453</ele>
        <time>2016-11-17T20:10:44Z</time>
      </trkpt>
      <trkpt lat="50.88587" lon="1.78354">
        <ele>68.176</ele>
        <time>2016-11-17T20:11:04Z</time>
      </trkpt>
      <trkpt lat="50.88519" lon="1.78438">
        <ele>67.388</ele>
        <time>2016-11-17T20:11:24Z</time>
      </trkpt>
      <trkpt lat="50.88515" lon="1.78517">
        <ele>69.994</ele>
        <time>2016-11-17T20:11:44Z</time>
      </trkpt>
      <trkpt lat="50.88503" lon="1.78586">
        <ele>73.057</ele>
        <time>2016-11-17T20:12:04Z</time>
      </trkpt>
      <trkpt lat="50.88449" lon="1.78648">
        <ele>76.222</ele>
        <time>2016-11-17T20:12:24Z</time>
      </trkpt>
      <trkpt lat="50.88947" lon="1.79701">
        <ele>62.008</ele>
        <time>2016-11-17T20:12:44Z</time>
      </trkpt>
      <trkpt lat="50.89354" lon="1.80534">
        <ele>54.042</ele>
        <time>2016-11-17T20:13:04Z</time>
      </trkpt>
      <trkpt lat="50.89572" lon="1.80909">
        <ele>47.218</ele>
        <time>2016-11-17T20:13:24Z</time>
      </trkpt>
      <trkpt lat="50.89441" lon="1.81111">
        <ele>41.325</ele>
        <time>2016-11-17T20:13:44Z</time>
      </trkpt>
      <trkpt lat="50.89423" lon="1.81158">
        <ele>44.82</ele>
        <time>2016-11-17T20:14:04Z</time>
      </trkpt>
      <trkpt lat="50.89247" lon="1.8142">
        <ele>38.978</ele>
        <time>2016-11-17T20:14:24Z</time>
      </trkpt>
      <trkpt lat="50.8923" lon="1.81525">
        <ele>37.01</ele>
        <time>2016-11-17T20:14:44Z</time>
      </trkpt>
      <trkpt lat="50.8923" lon="1.81525">
        <ele>37.073</ele>
        <time>2016-11-17T20:15:04Z</time>
      </trkpt>
      <trkpt lat="50.89377" lon="1.8159">
        <ele>38.935</ele>
        <time>2016-11-17T20:15:24Z</time>
      </trkpt>
      <trkpt lat="50.89417" lon="1.81736">
        <ele>36.022</ele>
        <time>2016-11-17T20:15:44Z</time>
      </trkpt>
      <trkpt lat="50.89417" lon="1.81736">
        <ele>36.062</ele>
        <time>2016-11-17T20:16:04Z</time>
      </trkpt>
      <trkpt lat="50.89242" lon="1.81817">
        <ele>31.208</ele>
        <time>2016-11-17T20:16:24Z</time>
      </trkpt>
      <trkpt lat="50.89085" lon="1.81912">
        <ele>20.708</ele>
        <time>2016-11-17T20:16:44Z</time>
      </trkpt>
      <trkpt lat="50.88913" lon="1.81959">
        <ele>24.835</ele>
        <time>2016-11-17T20:17:04Z</time>
      </trkpt>
      <trkpt lat="50.88913" lon="1.81959">
        <ele>24.841</ele>
        <time>2016-11-17T20:17:24Z</time>
      </trkpt>
      <trkpt lat="50.88859" lon="1.82051">
        <ele>28.978</ele>
        <time>2016-11-17T20:17:44Z</time>
      </trkpt>
      <trkpt lat="50.88741" lon="1.82182">
        <ele>26.583</ele>
        <time>2016-11-17T20:18:04Z</time>
      </trkpt>
      <trkpt lat="50.88701" lon="1.82203">
        <ele>25.721</ele>
        <time>2016-11-17T20:18:24Z</time>
      </trkpt>
      <trkpt lat="50.88133" lon="1.83019">
        <ele>14.793</ele>
        <time>2016-11-17T20:18:44Z</time>
      </trkpt>
      <trkpt lat="50.8803" lon="1.83171">
        <ele>26.956</ele>
        <time>2016-11-17T20:19:04Z</time>
      </trkpt>
      <trkpt lat="50.87955" lon="1.83302">
        <ele>27.078</ele>
        <time>2016-11-17T20:19:24Z</time>
      </trkpt>
      <trkpt lat="50.87892" lon="1.83384">
        <ele>22.364</ele>
        <time>2016-11-17T20:19:44Z</time>
      </trkpt>
      <trkpt lat="50.87807" lon="1.83542">
        <ele>12.506</ele>
        <time>2016-11-17T20:20:04Z</time>
      </trkpt>
      <trkpt lat="50.87745" lon="1.83632">
        <ele>9.216</ele>
        <time>2016-11-17T20:20:24Z</time>
      </trkpt>
      <trkpt lat="50.87428" lon="1.84154">
        <ele>17.308</ele>
        <time>2016-11-17T20:20:44Z</time>
      </trkpt>
      <trkpt lat="50.87428" lon="1.84154">
        <ele>17.379</ele>
        <time>2016-11-17T20:21:04Z</time>
      </trkpt>
      <trkpt lat="50.8732" lon="1.84317">
        <ele>19.435</ele>
        <time>2016-11-17T20:21:24Z</time>
      </trkpt>
      <trkpt lat="50.87179" lon="1.84347">
        <ele>19.532</ele>
        <time>2016-11-17T20:21:44Z</time>
      </trkpt>
      <trkpt lat="50.87058" lon="1.84396">
        <ele>21.037</ele>
        <time>2016-11-17T20:22:04Z</time>
      </trkpt>
      <trkpt lat="50.8698" lon="1.84394">
        <ele>24.785</ele>
        <time>2016-11-17T20:22:24Z</time>
      </trkpt>
      <trkpt lat="50.86926" lon="1.84343">
        <ele>26.757</ele>
        <time>2016-11-17T20:22:44Z</time>
      </trkpt>
      <trkpt lat="50.86821" lon="1.84299">
        <ele>27.11</ele>
        <time>2016-11-17T20:23:04Z</time>
      </trkpt>
      <trkpt lat="50.86609" lon="1.84169">
        <ele>28.362</ele>
        <time>2016-11-17T20:23:24Z</time>
      </trkpt>
      <trkpt lat="50.86485" lon="1.84055">
        <ele>27.057</ele>
        <time>2016-11-17T20:23:44Z</time>
      </trkpt>
      <trkpt lat="50.86339" lon="1.83952">
        <ele>34</ele>
        <time>2016-11-17T20:24:04Z</time>
      </trkpt>
      <trkpt lat="50.86339" lon="1.83952">
        <ele>34.02</ele>
        <time>2016-11-17T20:24:24Z</time>
      </trkpt>
      <trkpt lat="50.86177" lon="1.83371">
        <ele>49.008</ele>
        <time>2016-11-17T20:24:44Z</time>
      </trkpt>
      <trkpt lat="50.8614" lon="1.83268">
        <ele>51.868</ele>
        <time>2016-11-17T20:25:04Z</time>
      </trkpt>
      <trkpt lat="50.86121" lon="1.83291">
        <ele>51.074</ele>
        <time>2016-11-17T20:25:24Z</time>
      </trkpt>
      <trkpt lat="50.86158" lon="1.83388">
        <ele>49.011</ele>
        <time>2016-11-17T20:25:44Z</time>
      </trkpt>
      <trkpt lat="50.8621" lon="1.83596">
        <ele>44.786</ele>
        <time>2016-11-17T20:26:04Z</time>
      </trkpt>
      <trkpt lat="50.86183" lon="1.8365">
        <ele>44.664</ele>
        <time>2016-11-17T20:26:24Z</time>
      </trkpt>
      <trkpt lat="50.8606" lon="1.83742">
        <ele>42.146</ele>
        <time>2016-11-17T20:26:44Z</time>
      </trkpt>
      <trkpt lat="50.86013" lon="1.83749">
        <ele>49.519</ele>
        <time>2016-11-17T20:27:04Z</time>
      </trkpt>
      <trkpt lat="50.85975" lon="1.8372">
        <ele>53.351</ele>
        <time>2016-11-17T20:27:24Z</time>
      </trkpt>
      <trkpt lat="50.85964" lon="1.83763">
        <ele>57.731</ele>
        <time>2016-11-17T20:27:44Z</time>
      </trkpt>
      <trkpt lat="50.85811" lon="1.8363">
        <ele>57.561</ele>
        <time>2016-11-17T20:28:04Z</time>
      </trkpt>
      <trkpt lat="50.85764" lon="1.8362">
        <ele>60.107</ele>
        <time>2016-11-17T20:28:24Z</time>
      </trkpt>
      <trkpt lat="50.85764" lon="1.8362">
        <ele>60.108</ele>
        <time>2016-11-17T20:28:44Z</time>
      </trkpt>
      <trkpt lat="50.8539" lon="1.8416">
        <ele>68.296</ele>
        <time>2016-11-17T20:29:04Z</time>
      </trkpt>
      <trkpt lat="50.85342" lon="1.84085">
        <ele>72.632</ele>
        <time>2016-11-17T20:29:24Z</time>
      </trkpt>
      <trkpt lat="50.8505" lon="1.84697">
        <ele>79.769</ele>
        <time>2016-11-17T20:29:44Z</time>
      </trkpt>
      <trkpt lat="50.85196" lon="1.84875">
        <ele>66.544</ele>
        <time>2016-11-17T20:30:04Z</time>
      </trkpt>
      <trkpt lat="50.85126" lon="1.84864">
        <ele>71.172</ele>
        <time>2016-11-17T20:30:24Z</time>
      </trkpt>
      <trkpt lat="50.85062" lon="1.84834">
        <ele>72.494</ele>
        <time>2016-11-17T20:30:44Z</time>
      </trkpt>
      <trkpt lat="50.84981" lon="1.84937">
        <ele>64.037</ele>
        <time>2016-11-17T20:31:04Z</time>
      </trkpt>
      <trkpt lat="50.84937" lon="1.85021">
        <ele>65.779</ele>
        <time>2016-11-17T20:31:24Z</time>
      </trkpt>
      <trkpt lat="50.84936" lon="1.85049">
        <ele>64.998</ele>
        <time>2016-11-17T20:31:44Z</time>
      </trkpt>
      <trkpt lat="50.84898" lon="1.85122">
        <ele>65.415</ele>
        <time>2016-11-17T20:32:04Z</time>
      </trkpt>
      <trkpt lat="50.8485" lon="1.85246">
        <ele>71.426</ele>
        <time>2016-11-17T20:32:24Z</time>
      </trkpt>
      <trkpt lat="50.84823" lon="1.85265">
        <ele>75.308</ele>
        <time>2016-11-17T20:32:44Z</time>
      </trkpt>
      <trkpt lat="50.84783" lon="1.85465">
        <ele>83.422</ele>
        <time>2016-11-17T20:33:04Z</time>
      </trkpt>
      <trkpt lat="50.84746" lon="1.85589">
        <ele>88.188</ele>
        <time>2016-11-17T20:33:24Z</time>
      </trkpt>
      <trkpt lat="50.84754" lon="1.85637">
        <ele>86.855</ele>
        <time>2016-11-17T20:33:44Z</time>
      </trkpt>
      <trkpt lat="50.84753" lon="1.85669">
        <ele>87.08</ele>
        <time>2016-11-17T20:34:04Z</time>
      </trkpt>
      <trkpt lat="50.84766" lon="1.85716">
        <ele>87.888</ele>
        <time>2016-11-17T20:34:24Z</time>
      </trkpt>
      <trkpt lat="50.84764" lon="1.85742">
        <ele>88.05</ele>
        <time>2016-11-17T20:34:44Z</time>
      </trkpt>
      <trkpt lat="50.84783" lon="1.85804">
        <ele>85.333</ele>
        <time>2016-11-17T20:35:04Z</time>
      </trkpt>
      <trkpt lat="50.84777" lon="1.8589">
        <ele>83.025</ele>
        <time>2016-11-17T20:35:24Z</time>
      </trkpt>
      <trkpt lat="50.84745" lon="1.85918">
        <ele>82.666</ele>
        <time>2016-11-17T20:35:44Z</time>
      </trkpt>
      <trkpt lat="50.8473" lon="1.85926">
        <ele>81.229</ele>
        <time>2016-11-17T20:36:04Z</time>
      </trkpt>
      <trkpt lat="50.84714" lon="1.85913">
        <ele>80.721</ele>
        <time>2016-11-17T20:36:24Z</time>
      </trkpt>
      <trkpt lat="50.84376" lon="1.86613">
        <ele>70.008</ele>
        <time>2016-11-17T20:36:44Z</time>
      </trkpt>
      <trkpt lat="50.84391" lon="1.86632">
        <ele>69.319</ele>
        <time>2016-11-17T20:37:04Z</time>
      </trkpt>
      <trkpt lat="50.84375" lon="1.86656">
        <ele>69.235</ele>
        <time>2016-11-17T20:37:24Z</time>
      </trkpt>
      <trkpt lat="50.83864" lon="1.87808">
        <ele>65.462</ele>
        <time>2016-11-17T20:37:44Z</time>
      </trkpt>
      <trkpt lat="50.83741" lon="1.8772">
        <ele>73.757</ele>
        <time>2016-11-17T20:38:04Z</time>
      </trkpt>
      <trkpt lat="50.83699" lon="1.87718">
        <ele>74.215</ele>
        <time>2016-11-17T20:38:24Z</time>
      </trkpt>
      <trkpt lat="50.83613" lon="1.87673">
        <ele>75.927</ele>
        <time>2016-11-17T20:38:44Z</time>
      </trkpt>
      <trkpt lat="50.83571" lon="1.87671">
        <ele>75.06</ele>
        <time>2016-11-17T20:39:04Z</time>
      </trkpt>
      <trkpt lat="50.835" lon="1.87651">
        <ele>76.512</ele>
        <time>2016-11-17T20:39:24Z</time>
      </trkpt>
      <trkpt lat="50.83439" lon="1.87647">
        <ele>79.521</ele>
        <time>2016-11-17T20:39:44Z</time>
      </trkpt>
      <trkpt lat="50.83406" lon="1.87624">
        <ele>80.241</ele>
        <time>2016-11-17T20:40:04Z</time>
      </trkpt>
      <trkpt lat="50.83089" lon="1.88332">
        <ele>90.605</ele>
        <time>2016-11-17T20:40:24Z</time>
      </trkpt>
      <trkpt lat="50.83037" lon="1.88259">
        <ele>93.308</ele>
        <time>2016-11-17T20:40:44Z</time>
      </trkpt>
      <trkpt lat="50.82966" lon="1.88254">
        <ele>95.445</ele>
        <time>2016-11-17T20:41:04Z</time>
      </trkpt>
      <trkpt lat="50.82911" lon="1.88214">
        <ele>97.541</ele>
        <time>2016-11-17T20:41:24Z</time>
      </trkpt>
      <trkpt lat="50.82873" lon="1.88188">
        <ele>99.268</ele>
        <time>2016-11-17T20:41:44Z</time>
      </trkpt>
      <trkpt lat="50.82846" lon="1.88162">
        <ele>100.283</ele>
        <time>2016-11-17T20:42:04Z</time>
      </trkpt>
      <trkpt lat="50.8275" lon="1.88063">
        <ele>102.071</ele>
        <time>2016-11-17T20:42:24Z</time>
      </trkpt>
      <trkpt lat="50.82712" lon="1.88076">
        <ele>100.323</ele>
        <time>2016-11-17T20:42:44Z</time>
      </trkpt>
      <trkpt lat="50.82699" lon="1.88094">
        <ele>99.636</ele>
        <time>2016-11-17T20:43:04Z</time>
      </trkpt>
      <trkpt lat="50.82684" lon="1.88087">
        <ele>99.148</ele>
        <time>2016-11-17T20:43:24Z</time>
      </trkpt>
      <trkpt lat="50.82503" lon="1.88484">
        <ele>109.194</ele>
        <time>2016-11-17T20:43:44Z</time>
      </trkpt>
      <trkpt lat="50.81735" lon="1.87621">
        <ele>170.657</ele>
        <time>2016-11-17T20:44:04Z</time>
      </trkpt>
      <trkpt lat="50.81709" lon="1.87705">
        <ele>173.922</ele>
        <time>2016-11-17T20:44:24Z</time>
      </trkpt>
      <trkpt lat="50.8164" lon="1.87802">
        <ele>170.108</ele>
        <time>2016-11-17T20:44:44Z</time>
      </trkpt>
      <trkpt lat="50.81632" lon="1.87851">
        <ele>169.592</ele>
        <time>2016-11-17T20:45:04Z</time>
      </trkpt>
      <trkpt lat="50.81561" lon="1.87853">
        <ele>167.018</ele>
        <time>2016-11-17T20:45:24Z</time>
      </trkpt>
      <trkpt lat="50.81432" lon="1.87821">
        <ele>163.675</ele>
        <time>2016-11-17T20:45:44Z</time>
      </trkpt>
      <trkpt lat="50.81377" lon="1.87821">
        <ele>164.07</ele>
        <time>2016-11-17T20:46:04Z</time>
      </trkpt>
      <trkpt lat="50.81373" lon="1.87677">
        <ele>161.658</ele>
        <time>2016-11-17T20:46:24Z</time>
      </trkpt>
      <trkpt lat="50.81376" lon="1.87557">
        <ele>159.51</ele>
        <time>2016-11-17T20:46:44Z</time>
      </trkpt>
      <trkpt lat="50.81366" lon="1.87456">
        <ele>159.293</ele>
        <time>2016-11-17T20:47:04Z</time>
      </trkpt>
      <trkpt lat="50.81371" lon="1.87302">
        <ele>155.765</ele>
        <time>2016-11-17T20:47:24Z</time>
      </trkpt>
      <trkpt lat="50.81348" lon="1.87267">
        <ele>155.266</ele>
        <time>2016-11-17T20:47:44Z</time>
      </trkpt>
      <trkpt lat="50.81258" lon="1.87289">
        <ele>157.729</ele>
        <time>2016-11-17T20:48:04Z</time>
      </trkpt>
      <trkpt lat="50.8119" lon="1.87233">
        <ele>161.221</ele>
        <time>2016-11-17T20:48:24Z</time>
      </trkpt>
      <trkpt lat="50.8116" lon="1.87068">
        <ele>165.308</ele>
        <time>2016-11-17T20:48:44Z</time>
      </trkpt>
      <trkpt lat="50.81145" lon="1.86943">
        <ele>166.059</ele>
        <time>2016-11-17T20:49:04Z</time>
      </trkpt>
      <trkpt lat="50.81102" lon="1.86873">
        <ele>168.375</ele>
        <time>2016-11-17T20:49:24Z</time>
      </trkpt>
      <trkpt lat="50.81118" lon="1.86795">
        <ele>168.052</ele>
        <time>2016-11-17T20:49:44Z</time>
      </trkpt>
      <trkpt lat="50.81047" lon="1.86714">
        <ele>169.837</ele>
        <time>2016-11-17T20:50:04Z</time>
      </trkpt>
      <trkpt lat="50.80992" lon="1.86669">
        <ele>171.065</ele>
        <time>2016-11-17T20:50:24Z</time>
      </trkpt>
      <trkpt lat="50.80967" lon="1.866">
        <ele>169.697</ele>
        <time>2016-11-17T20:50:44Z</time>
      </trkpt>
      <trkpt lat="50.80966" lon="1.86551">
        <ele>169.15</ele>
        <time>2016-11-17T20:51:04Z</time>
      </trkpt>
      <trkpt lat="50.80925" lon="1.86566">
        <ele>169.082</ele>
        <time>2016-11-17T20:51:24Z</time>
      </trkpt>
      <trkpt lat="50.80874" lon="1.86647">
        <ele>170.379</ele>
        <time>2016-11-17T20:51:44Z</time>
      </trkpt>
      <trkpt lat="50.80832" lon="1.86763">
        <ele>172.005</ele>
        <time>2016-11-17T20:52:04Z</time>
      </trkpt>
      <trkpt lat="50.80805" lon="1.86853">
        <ele>172.025</ele>
        <time>2016-11-17T20:52:24Z</time>
      </trkpt>
      <trkpt lat="50.8075" lon="1.8698">
        <ele>173.008</ele>
        <time>2016-11-17T20:52:44Z</time>
      </trkpt>
      <trkpt lat="50.80689" lon="1.87194">
        <ele>175.89</ele>
        <time>2016-11-17T20:53:04Z</time>
      </trkpt>
      <trkpt lat="50.80649" lon="1.8727">
        <ele>174.116</ele>
        <time>2016-11-17T20:53:24Z</time>
      </trkpt>
      <trkpt lat="50.80581" lon="1.8736">
        <ele>171.963</ele>
        <time>2016-11-17T20:53:44Z</time>
      </trkpt>
      <trkpt lat="50.80449" lon="1.87469">
        <ele>171.958</ele>
        <time>2016-11-17T20:54:04Z</time>
      </trkpt>
      <trkpt lat="50.80445" lon="1.87531">
        <ele>174.156</ele>
        <time>2016-11-17T20:54:24Z</time>
      </trkpt>
      <trkpt lat="50.80466" lon="1.87619">
        <ele>177.058</ele>
        <time>2016-11-17T20:54:44Z</time>
      </trkpt>
      <trkpt lat="50.80512" lon="1.87716">
        <ele>176.631</ele>
        <time>2016-11-17T20:55:04Z</time>
      </trkpt>
      <trkpt lat="50.8057" lon="1.878">
        <ele>176.093</ele>
        <time>2016-11-17T20:55:24Z</time>
      </trkpt>
      <trkpt lat="50.80166" lon="1.88023">
        <ele>176.023</ele>
        <time>2016-11-17T20:55:44Z</time>
      </trkpt>
      <trkpt lat="50.80132" lon="1.88001">
        <ele>176.083</ele>
        <time>2016-11-17T20:56:04Z</time>
      </trkpt>
      <trkpt lat="50.80078" lon="1.88057">
        <ele>176.211</ele>
        <time>2016-11-17T20:56:24Z</time>
      </trkpt>
      <trkpt lat="50.79941" lon="1.88121">
        <ele>181.108</ele>
        <time>2016-11-17T20:56:44Z</time>
      </trkpt>
      <trkpt lat="50.79969" lon="1.88214">
        <ele>181.865</ele>
        <time>2016-11-17T20:57:04Z</time>
      </trkpt>
      <trkpt lat="50.79896" lon="1.88265">
        <ele>182.171</ele>
        <time>2016-11-17T20:57:24Z</time>
      </trkpt>
      <trkpt lat="50.79842" lon="1.88272">
        <ele>180.178</ele>
        <time>2016-11-17T20:57:44Z</time>
      </trkpt>
      <trkpt lat="50.79809" lon="1.88246">
        <ele>180.063</ele>
        <time>2016-11-17T20:58:04Z</time>
      </trkpt>
      <trkpt lat="50.79781" lon="1.88269">
        <ele>178.471</ele>
        <time>2016-11-17T20:58:24Z</time>
      </trkpt>
      <trkpt lat="50.79714" lon="1.88321">
        <ele>175.263</ele>
        <time>2016-11-17T20:58:44Z</time>
      </trkpt>
      <trkpt lat="50.79649" lon="1.88336">
        <ele>174.056</ele>
        <time>2016-11-17T20:59:04Z</time>
      </trkpt>
      <trkpt lat="50.79575" lon="1.88422">
        <ele>177.868</ele>
        <time>2016-11-17T20:59:24Z</time>
      </trkpt>
      <trkpt lat="50.79504" lon="1.88441">
        <ele>176.029</ele>
        <time>2016-11-17T20:59:44Z</time>
      </trkpt>
      <trkpt lat="50.79382" lon="1.88589">
        <ele>177.8</ele>
        <time>2016-11-17T21:00:04Z</time>
      </trkpt>
      <trkpt lat="50.7934" lon="1.88662">
        <ele>175.32</ele>
        <time>2016-11-17T21:00:24Z</time>
      </trkpt>
      <trkpt lat="50.79237" lon="1.88782">
        <ele>168.508</ele>
        <time>2016-11-17T21:00:44Z</time>
      </trkpt>
      <trkpt lat="50.79141" lon="1.88948">
        <ele>167.895</ele>
        <time>2016-11-17T21:01:04Z</time>
      </trkpt>
      <trkpt lat="50.79108" lon="1.89029">
        <ele>166.661</ele>
        <time>2016-11-17T21:01:24Z</time>
      </trkpt>
      <trkpt lat="50.79109" lon="1.89141">
        <ele>169.938</ele>
        <time>2016-11-17T21:01:44Z</time>
      </trkpt>
      <trkpt lat="50.79103" lon="1.89214">
        <ele>169.073</ele>
        <time>2016-11-17T21:02:04Z</time>
      </trkpt>
      <trkpt lat="50.79078" lon="1.89306">
        <ele>171.071</ele>
        <time>2016-11-17T21:02:24Z</time>
      </trkpt>
      <trkpt lat="50.7907" lon="1.89409">
        <ele>171.593</ele>
        <time>2016-11-17T21:02:44Z</time>
      </trkpt>
      <trkpt lat="50.79073" lon="1.89499">
        <ele>170.746</ele>
        <time>2016-11-17T21:03:04Z</time>
      </trkpt>
      <trkpt lat="50.79054" lon="1.89765">
        <ele>169.928</ele>
        <time>2016-11-17T21:03:24Z</time>
      </trkpt>
      <trkpt lat="50.79053" lon="1.89855">
        <ele>170.626</ele>
        <time>2016-11-17T21:03:44Z</time>
      </trkpt>
      <trkpt lat="50.79031" lon="1.9001">
        <ele>169.247</ele>
        <time>2016-11-17T21:04:04Z</time>
      </trkpt>
      <trkpt lat="50.79025" lon="1.90132">
        <ele>167.911</ele>
        <time>2016-11-17T21:04:24Z</time>
      </trkpt>
      <trkpt lat="50.78996" lon="1.90177">
        <ele>168.208</ele>
        <time>2016-11-17T21:04:44Z</time>
      </trkpt>
      <trkpt lat="50.78962" lon="1.90218">
        <ele>168.495</ele>
        <time>2016-11-17T21:05:04Z</time>
      </trkpt>
      <trkpt lat="50.78906" lon="1.90377">
        <ele>163.561</ele>
        <time>2016-11-17T21:05:24Z</time>
      </trkpt>
      <trkpt lat="50.78887" lon="1.90542">
        <ele>163.078</ele>
        <time>2016-11-17T21:05:44Z</time>
      </trkpt>
      <trkpt lat="50.78876" lon="1.90774">
        <ele>165.763</ele>
        <time>2016-11-17T21:06:04Z</time>
      </trkpt>
      <trkpt lat="50.7884" lon="1.90838">
        <ele>166.251</ele>
        <time>2016-11-17T21:06:24Z</time>
      </trkpt>
      <trkpt lat="50.78802" lon="1.90962">
        <ele>164.593</ele>
        <time>2016-11-17T21:06:44Z</time>
      </trkpt>
      <trkpt lat="50.78778" lon="1.91209">
        <ele>159.166</ele>
        <time>2016-11-17T21:07:04Z</time>
      </trkpt>
      <trkpt lat="50.78783" lon="1.91338">
        <ele>157.228</ele>
        <time>2016-11-17T21:07:24Z</time>
      </trkpt>
      <trkpt lat="50.78788" lon="1.91428">
        <ele>154.145</ele>
        <time>2016-11-17T21:07:44Z</time>
      </trkpt>
      <trkpt lat="50.78769" lon="1.91497">
        <ele>149.247</ele>
        <time>2016-11-17T21:08:04Z</time>
      </trkpt>
      <trkpt lat="50.78772" lon="1.91572">
        <ele>149.711</ele>
        <time>2016-11-17T21:08:24Z</time>
      </trkpt>
      <trkpt lat="50.78745" lon="1.91795">
        <ele>135.708</ele>
        <time>2016-11-17T21:08:44Z</time>
      </trkpt>
      <trkpt lat="50.78694" lon="1.91958">
        <ele>115.027</ele>
        <time>2016-11-17T21:09:04Z</time>
      </trkpt>
      <trkpt lat="50.78671" lon="1.92089">
        <ele>105.193</ele>
        <time>2016-11-17T21:09:24Z</time>
      </trkpt>
      <trkpt lat="50.78644" lon="1.92308">
        <ele>92.52</ele>
        <time>2016-11-17T21:09:44Z</time>
      </trkpt>
      <trkpt lat="50.78644" lon="1.92443">
        <ele>87.675</ele>
        <time>2016-11-17T21:10:04Z</time>
      </trkpt>
      <trkpt lat="50.78681" lon="1.92561">
        <ele>87.453</ele>
        <time>2016-11-17T21:10:24Z</time>
      </trkpt>
      <trkpt lat="50.78736" lon="1.92703">
        <ele>85.725</ele>
        <time>2016-11-17T21:10:44Z</time>
      </trkpt>
      <trkpt lat="50.78747" lon="1.92795">
        <ele>82.328</ele>
        <time>2016-11-17T21:11:04Z</time>
      </trkpt>
      <trkpt lat="50.78785" lon="1.92943">
        <ele>80.62</ele>
        <time>2016-11-17T21:11:24Z</time>
      </trkpt>
      <trkpt lat="50.78826" lon="1.93067">
        <ele>78.462</ele>
        <time>2016-11-17T21:11:44Z</time>
      </trkpt>
      <trkpt lat="50.78905" lon="1.93299">
        <ele>77.283</ele>
        <time>2016-11-17T21:12:04Z</time>
      </trkpt>
      <trkpt lat="50.78941" lon="1.93364">
        <ele>76.811</ele>
        <time>2016-11-17T21:12:24Z</time>
      </trkpt>
      <trkpt lat="50.78762" lon="1.93524">
        <ele>70.408</ele>
        <time>2016-11-17T21:12:44Z</time>
      </trkpt>
      <trkpt lat="50.7873" lon="1.93522">
        <ele>70.919</ele>
        <time>2016-11-17T21:13:04Z</time>
      </trkpt>
      <trkpt lat="50.78662" lon="1.93527">
        <ele>70.945</ele>
        <time>2016-11-17T21:13:24Z</time>
      </trkpt>
      <trkpt lat="50.78603" lon="1.93522">
        <ele>69.372</ele>
        <time>2016-11-17T21:13:44Z</time>
      </trkpt>
      <trkpt lat="50.78533" lon="1.93554">
        <ele>71.997</ele>
        <time>2016-11-17T21:14:04Z</time>
      </trkpt>
      <trkpt lat="50.78537" lon="1.93608">
        <ele>70.825</ele>
        <time>2016-11-17T21:14:24Z</time>
      </trkpt>
      <trkpt lat="50.78561" lon="1.9367">
        <ele>70.037</ele>
        <time>2016-11-17T21:14:44Z</time>
      </trkpt>
      <trkpt lat="50.78506" lon="1.9372">
        <ele>69.12</ele>
        <time>2016-11-17T21:15:04Z</time>
      </trkpt>
      <trkpt lat="50.78434" lon="1.93771">
        <ele>68.072</ele>
        <time>2016-11-17T21:15:24Z</time>
      </trkpt>
      <trkpt lat="50.78343" lon="1.93887">
        <ele>68.095</ele>
        <time>2016-11-17T21:15:44Z</time>
      </trkpt>
      <trkpt lat="50.78244" lon="1.94177">
        <ele>79.249</ele>
        <time>2016-11-17T21:16:04Z</time>
      </trkpt>
      <trkpt lat="50.78131" lon="1.94318">
        <ele>81.323</ele>
        <time>2016-11-17T21:16:24Z</time>
      </trkpt>
      <trkpt lat="50.78122" lon="1.944">
        <ele>79.008</ele>
        <time>2016-11-17T21:16:44Z</time>
      </trkpt>
      <trkpt lat="50.78186" lon="1.94505">
        <ele>77.622</ele>
        <time>2016-11-17T21:17:04Z</time>
      </trkpt>
      <trkpt lat="50.78263" lon="1.94574">
        <ele>76.578</ele>
        <time>2016-11-17T21:17:24Z</time>
      </trkpt>
      <trkpt lat="50.78281" lon="1.94653">
        <ele>75.595</ele>
        <time>2016-11-17T21:17:44Z</time>
      </trkpt>
      <trkpt lat="50.78431" lon="1.94941">
        <ele>63.74</ele>
        <time>2016-11-17T21:18:04Z</time>
      </trkpt>
      <trkpt lat="50.78564" lon="1.9525">
        <ele>58.768</ele>
        <time>2016-11-17T21:18:24Z</time>
      </trkpt>
      <trkpt lat="50.78561" lon="1.95312">
        <ele>57.84</ele>
        <time>2016-11-17T21:18:44Z</time>
      </trkpt>
      <trkpt lat="50.78605" lon="1.95526">
        <ele>59.053</ele>
        <time>2016-11-17T21:19:04Z</time>
      </trkpt>
      <trkpt lat="50.78684" lon="1.95644">
        <ele>64.025</ele>
        <time>2016-11-17T21:19:24Z</time>
      </trkpt>
      <trkpt lat="50.78761" lon="1.95683">
        <ele>67.969</ele>
        <time>2016-11-17T21:19:44Z</time>
      </trkpt>
      <trkpt lat="50.7872" lon="1.95835">
        <ele>64.904</ele>
        <time>2016-11-17T21:20:04Z</time>
      </trkpt>
      <trkpt lat="50.78682" lon="1.95898">
        <ele>64.124</ele>
        <time>2016-11-17T21:20:24Z</time>
      </trkpt>
      <trkpt lat="50.78612" lon="1.95921">
        <ele>60.208</ele>
        <time>2016-11-17T21:20:44Z</time>
      </trkpt>
      <trkpt lat="50.78484" lon="1.96114">
        <ele>62.989</ele>
        <time>2016-11-17T21:21:04Z</time>
      </trkpt>
      <trkpt lat="50.78473" lon="1.96194">
        <ele>61.195</ele>
        <time>2016-11-17T21:21:24Z</time>
      </trkpt>
      <trkpt lat="50.78485" lon="1.96363">
        <ele>60.922</ele>
        <time>2016-11-17T21:21:44Z</time>
      </trkpt>
      <trkpt lat="50.78494" lon="1.96531">
        <ele>59.727</ele>
        <time>2016-11-17T21:22:04Z</time>
      </trkpt>
      <trkpt lat="50.78494" lon="1.96685">
        <ele>60.585</ele>
        <time>2016-11-17T21:22:24Z</time>
      </trkpt>
      <trkpt lat="50.78502" lon="1.96737">
        <ele>61.117</ele>
        <time>2016-11-17T21:23:44Z</time>
      </trkpt>
      <trkpt lat="50.78472" lon="1.96772">
        <ele>59.05</ele>
        <time>2016-11-17T21:24:04Z</time>
      </trkpt>
      <trkpt lat="50.78395" lon="1.96806">
        <ele>56.092</ele>
        <time>2016-11-17T21:24:24Z</time>
      </trkpt>
      <trkpt lat="50.78326" lon="1.96816">
        <ele>53.675</ele>
        <time>2016-11-17T21:24:44Z</time>
      </trkpt>
      <trkpt lat="50.78329" lon="1.96884">
        <ele>53.828</ele>
        <time>2016-11-17T21:25:04Z</time>
      </trkpt>
      <trkpt lat="50.78404" lon="1.97182">
        <ele>49.02</ele>
        <time>2016-11-17T21:25:24Z</time>
      </trkpt>
      <trkpt lat="50.78432" lon="1.97199">
        <ele>50.208</ele>
        <time>2016-11-17T21:26:04Z</time>
      </trkpt>
      <trkpt lat="50.78466" lon="1.97158">
        <ele>52.99</ele>
        <time>2016-11-17T21:26:24Z</time>
      </trkpt>
      <trkpt lat="50.7849" lon="1.97109">
        <ele>54.736</ele>
        <time>2016-11-17T21:26:44Z</time>
      </trkpt>
      <trkpt lat="50.78555" lon="1.97069">
        <ele>58.033</ele>
        <time>2016-11-17T21:27:04Z</time>
      </trkpt>
      <trkpt lat="50.78634" lon="1.97055">
        <ele>66.588</ele>
        <time>2016-11-17T21:27:24Z</time>
      </trkpt>
      <trkpt lat="50.78707" lon="1.97013">
        <ele>73.346</ele>
        <time>2016-11-17T21:27:44Z</time>
      </trkpt>
      <trkpt lat="50.78785" lon="1.97001">
        <ele>79.538</ele>
        <time>2016-11-17T21:28:04Z</time>
      </trkpt>
      <trkpt lat="50.78991" lon="1.96855">
        <ele>94.941</ele>
        <time>2016-11-17T21:28:24Z</time>
      </trkpt>
      <trkpt lat="50.79076" lon="1.96844">
        <ele>98.793</ele>
        <time>2016-11-17T21:28:44Z</time>
      </trkpt>
      <trkpt lat="50.79207" lon="1.96919">
        <ele>111.939</ele>
        <time>2016-11-17T21:29:04Z</time>
      </trkpt>
      <trkpt lat="50.79264" lon="1.96865">
        <ele>119.201</ele>
        <time>2016-11-17T21:29:24Z</time>
      </trkpt>
      <trkpt lat="50.79305" lon="1.96785">
        <ele>123.221</ele>
        <time>2016-11-17T21:33:24Z</time>
      </trkpt>
      <trkpt lat="50.79318" lon="1.96732">
        <ele>123.508</ele>
        <time>2016-11-17T21:33:44Z</time>
      </trkpt>
      <trkpt lat="50.79341" lon="1.96679">
        <ele>124.986</ele>
        <time>2016-11-17T21:34:04Z</time>
      </trkpt>
      <trkpt lat="50.79371" lon="1.96692">
        <ele>131.452</ele>
        <time>2016-11-17T21:34:24Z</time>
      </trkpt>
      <trkpt lat="50.79362" lon="1.96805">
        <ele>137.289</ele>
        <time>2016-11-17T21:34:44Z</time>
      </trkpt>
      <trkpt lat="50.79362" lon="1.96908">
        <ele>145.884</ele>
        <time>2016-11-17T21:35:04Z</time>
      </trkpt>
      <trkpt lat="50.79341" lon="1.96992">
        <ele>144.082</ele>
        <time>2016-11-17T21:35:24Z</time>
      </trkpt>
      <trkpt lat="50.79352" lon="1.97016">
        <ele>147.834</ele>
        <time>2016-11-17T21:35:44Z</time>
      </trkpt>
      <trkpt lat="50.79374" lon="1.97018">
        <ele>153.697</ele>
        <time>2016-11-17T21:36:04Z</time>
      </trkpt>
      <trkpt lat="50.79416" lon="1.9688">
        <ele>156.299</ele>
        <time>2016-11-17T21:36:24Z</time>
      </trkpt>
      <trkpt lat="50.79447" lon="1.96876">
        <ele>160.317</ele>
        <time>2016-11-17T21:36:44Z</time>
      </trkpt>
      <trkpt lat="50.79511" lon="1.97078">
        <ele>170.087</ele>
        <time>2016-11-17T21:37:04Z</time>
      </trkpt>
      <trkpt lat="50.79537" lon="1.97106">
        <ele>170.515</ele>
        <time>2016-11-17T21:37:24Z</time>
      </trkpt>
      <trkpt lat="50.79715" lon="1.97119">
        <ele>162.108</ele>
        <time>2016-11-17T21:38:04Z</time>
      </trkpt>
      <trkpt lat="50.7988" lon="1.97187">
        <ele>145.764</ele>
        <time>2016-11-17T21:38:24Z</time>
      </trkpt>
      <trkpt lat="50.79965" lon="1.97196">
        <ele>133.13</ele>
        <time>2016-11-17T21:38:44Z</time>
      </trkpt>
      <trkpt lat="50.80046" lon="1.97186">
        <ele>132.157</ele>
        <time>2016-11-17T21:39:04Z</time>
      </trkpt>
      <trkpt lat="50.8022" lon="1.97238">
        <ele>118.142</ele>
        <time>2016-11-17T21:39:24Z</time>
      </trkpt>
      <trkpt lat="50.80262" lon="1.97231">
        <ele>115.66</ele>
        <time>2016-11-17T21:39:44Z</time>
      </trkpt>
      <trkpt lat="50.80318" lon="1.97203">
        <ele>115.512</ele>
        <time>2016-11-17T21:40:04Z</time>
      </trkpt>
      <trkpt lat="50.80451" lon="1.97177">
        <ele>111.075</ele>
        <time>2016-11-17T21:40:24Z</time>
      </trkpt>
      <trkpt lat="50.80504" lon="1.97183">
        <ele>109.647</ele>
        <time>2016-11-17T21:40:44Z</time>
      </trkpt>
      <trkpt lat="50.80614" lon="1.97147">
        <ele>101.363</ele>
        <time>2016-11-17T21:41:04Z</time>
      </trkpt>
      <trkpt lat="50.80683" lon="1.9717">
        <ele>94.444</ele>
        <time>2016-11-17T21:41:24Z</time>
      </trkpt>
      <trkpt lat="50.80771" lon="1.97174">
        <ele>88.818</ele>
        <time>2016-11-17T21:41:44Z</time>
      </trkpt>
      <trkpt lat="50.80871" lon="1.97211">
        <ele>84.508</ele>
        <time>2016-11-17T21:42:04Z</time>
      </trkpt>
      <trkpt lat="50.80916" lon="1.9726">
        <ele>81.419</ele>
        <time>2016-11-17T21:42:24Z</time>
      </trkpt>
      <trkpt lat="50.80963" lon="1.97258">
        <ele>78.175</ele>
        <time>2016-11-17T21:42:44Z</time>
      </trkpt>
      <trkpt lat="50.81123" lon="1.97093">
        <ele>74.882</ele>
        <time>2016-11-17T21:43:04Z</time>
      </trkpt>
      <trkpt lat="50.81278" lon="1.96913">
        <ele>69.027</ele>
        <time>2016-11-17T21:43:24Z</time>
      </trkpt>
      <trkpt lat="50.81399" lon="1.96868">
        <ele>67.095</ele>
        <time>2016-11-17T21:43:44Z</time>
      </trkpt>
      <trkpt lat="50.815" lon="1.96876">
        <ele>66.537</ele>
        <time>2016-11-17T21:44:04Z</time>
      </trkpt>
      <trkpt lat="50.81514" lon="1.96949">
        <ele>64.04</ele>
        <time>2016-11-17T21:44:24Z</time>
      </trkpt>
      <trkpt lat="50.81553" lon="1.97054">
        <ele>62.012</ele>
        <time>2016-11-17T21:44:44Z</time>
      </trkpt>
      <trkpt lat="50.81681" lon="1.97334">
        <ele>59.537</ele>
        <time>2016-11-17T21:45:04Z</time>
      </trkpt>
      <trkpt lat="50.81668" lon="1.97466">
        <ele>59.049</ele>
        <time>2016-11-17T21:45:24Z</time>
      </trkpt>
      <trkpt lat="50.81614" lon="1.97651">
        <ele>67.313</ele>
        <time>2016-11-17T21:45:44Z</time>
      </trkpt>
      <trkpt lat="50.81621" lon="1.97737">
        <ele>67.108</ele>
        <time>2016-11-17T21:46:04Z</time>
      </trkpt>
      <trkpt lat="50.81617" lon="1.979">
        <ele>64.016</ele>
        <time>2016-11-17T21:46:24Z</time>
      </trkpt>
      <trkpt lat="50.81629" lon="1.97949">
        <ele>64.442</ele>
        <time>2016-11-17T21:46:44Z</time>
      </trkpt>
      <trkpt lat="50.81617" lon="1.98106">
        <ele>69.239</ele>
        <time>2016-11-17T21:47:04Z</time>
      </trkpt>
      <trkpt lat="50.81576" lon="1.98153">
        <ele>70.594</ele>
        <time>2016-11-17T21:47:24Z</time>
      </trkpt>
      <trkpt lat="50.81538" lon="1.9832">
        <ele>76.232</ele>
        <time>2016-11-17T21:47:44Z</time>
      </trkpt>
      <trkpt lat="50.81531" lon="1.98382">
        <ele>76.854</ele>
        <time>2016-11-17T21:48:04Z</time>
      </trkpt>
      <trkpt lat="50.81472" lon="1.98539">
        <ele>76.217</ele>
        <time>2016-11-17T21:48:44Z</time>
      </trkpt>
      <trkpt lat="50.81592" lon="1.98681">
        <ele>71.029</ele>
        <time>2016-11-17T21:49:04Z</time>
      </trkpt>
      <trkpt lat="50.81639" lon="1.9879">
        <ele>72.117</ele>
        <time>2016-11-17T21:49:44Z</time>
      </trkpt>
      <trkpt lat="50.81708" lon="1.98865">
        <ele>68.687</ele>
        <time>2016-11-17T21:50:44Z</time>
      </trkpt>
      <trkpt lat="50.81531" lon="1.99442">
        <ele>71.015</ele>
        <time>2016-11-17T21:51:04Z</time>
      </trkpt>
      <trkpt lat="50.81458" lon="2.00121">
        <ele>89.708</ele>
        <time>2016-11-17T21:51:24Z</time>
      </trkpt>
      <trkpt lat="50.81423" lon="2.00232">
        <ele>90.714</ele>
        <time>2016-11-17T21:51:44Z</time>
      </trkpt>
      <trkpt lat="50.81354" lon="2.00329">
        <ele>96.45</ele>
        <time>2016-11-17T21:52:04Z</time>
      </trkpt>
      <trkpt lat="50.81245" lon="2.00425">
        <ele>106.397</ele>
        <time>2016-11-17T21:52:24Z</time>
      </trkpt>
      <trkpt lat="50.81085" lon="2.0049">
        <ele>112.492</ele>
        <time>2016-11-17T21:52:44Z</time>
      </trkpt>
      <trkpt lat="50.80989" lon="2.00833">
        <ele>120.47</ele>
        <time>2016-11-17T21:53:04Z</time>
      </trkpt>
      <trkpt lat="50.80978" lon="2.00934">
        <ele>121.082</ele>
        <time>2016-11-17T21:53:24Z</time>
      </trkpt>
      <trkpt lat="50.80951" lon="2.01163">
        <ele>119.455</ele>
        <time>2016-11-17T21:53:44Z</time>
      </trkpt>
      <trkpt lat="50.80928" lon="2.01258">
        <ele>120.627</ele>
        <time>2016-11-17T21:54:04Z</time>
      </trkpt>
      <trkpt lat="50.80928" lon="2.01344">
        <ele>120.364</ele>
        <time>2016-11-17T21:54:24Z</time>
      </trkpt>
      <trkpt lat="50.80931" lon="2.01498">
        <ele>116.206</ele>
        <time>2016-11-17T21:54:44Z</time>
      </trkpt>
      <trkpt lat="50.80902" lon="2.01601">
        <ele>114.316</ele>
        <time>2016-11-17T21:55:04Z</time>
      </trkpt>
      <trkpt lat="50.80868" lon="2.01685">
        <ele>112.508</ele>
        <time>2016-11-17T21:55:24Z</time>
      </trkpt>
      <trkpt lat="50.80912" lon="2.01811">
        <ele>115.339</ele>
        <time>2016-11-17T21:55:44Z</time>
      </trkpt>
      <trkpt lat="50.8091" lon="2.01841">
        <ele>116.055</ele>
        <time>2016-11-17T21:56:04Z</time>
      </trkpt>
      <trkpt lat="50.80939" lon="2.01882">
        <ele>118.262</ele>
        <time>2016-11-17T21:56:24Z</time>
      </trkpt>
      <trkpt lat="50.81027" lon="2.02142">
        <ele>107.957</ele>
        <time>2016-11-17T21:56:44Z</time>
      </trkpt>
      <trkpt lat="50.81034" lon="2.02187">
        <ele>106.335</ele>
        <time>2016-11-17T21:57:04Z</time>
      </trkpt>
      <trkpt lat="50.81047" lon="2.02192">
        <ele>106.157</ele>
        <time>2016-11-17T21:57:24Z</time>
      </trkpt>
      <trkpt lat="50.81104" lon="2.02165">
        <ele>105.32</ele>
        <time>2016-11-17T21:57:44Z</time>
      </trkpt>
      <trkpt lat="50.81081" lon="2.02191">
        <ele>106.092</ele>
        <time>2016-11-17T21:58:04Z</time>
      </trkpt>
      <trkpt lat="50.8092" lon="2.02296">
        <ele>94.788</ele>
        <time>2016-11-17T21:58:24Z</time>
      </trkpt>
      <trkpt lat="50.80818" lon="2.02382">
        <ele>82.524</ele>
        <time>2016-11-17T22:54:04Z</time>
      </trkpt>
      <trkpt lat="50.8072" lon="2.02433">
        <ele>73.126</ele>
        <time>2016-11-17T22:54:24Z</time>
      </trkpt>
      <trkpt lat="50.80693" lon="2.02457">
        <ele>67.708</ele>
        <time>2016-11-17T22:54:44Z</time>
      </trkpt>
      <trkpt lat="50.80555" lon="2.02686">
        <ele>53.791</ele>
        <time>2016-11-17T22:55:04Z</time>
      </trkpt>
      <trkpt lat="50.80356" lon="2.02822">
        <ele>40.727</ele>
        <time>2016-11-17T22:55:24Z</time>
      </trkpt>
      <trkpt lat="50.80283" lon="2.02889">
        <ele>38.034</ele>
        <time>2016-11-17T22:55:44Z</time>
      </trkpt>
      <trkpt lat="50.80299" lon="2.02987">
        <ele>37.959</ele>
        <time>2016-11-17T22:56:04Z</time>
      </trkpt>
      <trkpt lat="50.80298" lon="2.03088">
        <ele>36.427</ele>
        <time>2016-11-17T22:56:24Z</time>
      </trkpt>
      <trkpt lat="50.80306" lon="2.03204">
        <ele>32.769</ele>
        <time>2016-11-17T22:56:44Z</time>
      </trkpt>
      <trkpt lat="50.80353" lon="2.0329">
        <ele>33.452</ele>
        <time>2016-11-17T22:57:04Z</time>
      </trkpt>
      <trkpt lat="50.80364" lon="2.03352">
        <ele>33.164</ele>
        <time>2016-11-17T22:57:24Z</time>
      </trkpt>
      <trkpt lat="50.80369" lon="2.03489">
        <ele>34.175</ele>
        <time>2016-11-17T22:57:44Z</time>
      </trkpt>
      <trkpt lat="50.80491" lon="2.03846">
        <ele>32.328</ele>
        <time>2016-11-17T22:58:04Z</time>
      </trkpt>
      <trkpt lat="50.80515" lon="2.03942">
        <ele>31.62</ele>
        <time>2016-11-17T22:58:24Z</time>
      </trkpt>
      <trkpt lat="50.80576" lon="2.0412">
        <ele>29.708</ele>
        <time>2016-11-17T22:58:44Z</time>
      </trkpt>
      <trkpt lat="50.80646" lon="2.04193">
        <ele>31.65</ele>
        <time>2016-11-17T22:59:04Z</time>
      </trkpt>
      <trkpt lat="50.80699" lon="2.04281">
        <ele>30.346</ele>
        <time>2016-11-17T22:59:24Z</time>
      </trkpt>
      <trkpt lat="50.80782" lon="2.04388">
        <ele>30.393</ele>
        <time>2016-11-17T22:59:44Z</time>
      </trkpt>
      <trkpt lat="50.80849" lon="2.04524">
        <ele>30.378</ele>
        <time>2016-11-17T23:00:04Z</time>
      </trkpt>
      <trkpt lat="50.80863" lon="2.04577">
        <ele>31.156</ele>
        <time>2016-11-17T23:00:24Z</time>
      </trkpt>
      <trkpt lat="50.80836" lon="2.0464">
        <ele>28.128</ele>
        <time>2016-11-17T23:00:44Z</time>
      </trkpt>
      <trkpt lat="50.80738" lon="2.04736">
        <ele>27.421</ele>
        <time>2016-11-17T23:01:04Z</time>
      </trkpt>
      <trkpt lat="50.80692" lon="2.04745">
        <ele>28.183</ele>
        <time>2016-11-17T23:01:24Z</time>
      </trkpt>
      <trkpt lat="50.80673" lon="2.0477">
        <ele>29.378</ele>
        <time>2016-11-17T23:01:44Z</time>
      </trkpt>
      <trkpt lat="50.80683" lon="2.0485">
        <ele>30.333</ele>
        <time>2016-11-17T23:02:04Z</time>
      </trkpt>
      <trkpt lat="50.80635" lon="2.04886">
        <ele>35.026</ele>
        <time>2016-11-17T23:02:24Z</time>
      </trkpt>
      <trkpt lat="50.80551" lon="2.04777">
        <ele>33.808</ele>
        <time>2016-11-17T23:02:44Z</time>
      </trkpt>
      <trkpt lat="50.80489" lon="2.04861">
        <ele>36.03</ele>
        <time>2016-11-17T23:03:04Z</time>
      </trkpt>
      <trkpt lat="50.80482" lon="2.04925">
        <ele>40.336</ele>
        <time>2016-11-17T23:03:24Z</time>
      </trkpt>
      <trkpt lat="50.80451" lon="2.05043">
        <ele>49.983</ele>
        <time>2016-11-17T23:03:44Z</time>
      </trkpt>
      <trkpt lat="50.80445" lon="2.05284">
        <ele>59.988</ele>
        <time>2016-11-17T23:04:04Z</time>
      </trkpt>
      <trkpt lat="50.80449" lon="2.05455">
        <ele>62.416</ele>
        <time>2016-11-17T23:04:24Z</time>
      </trkpt>
      <trkpt lat="50.80471" lon="2.05678">
        <ele>66.258</ele>
        <time>2016-11-17T23:04:44Z</time>
      </trkpt>
      <trkpt lat="50.80494" lon="2.05861">
        <ele>67.621</ele>
        <time>2016-11-17T23:05:04Z</time>
      </trkpt>
      <trkpt lat="50.80589" lon="2.05798">
        <ele>58.313</ele>
        <time>2016-11-17T23:05:24Z</time>
      </trkpt>
      <trkpt lat="50.80842" lon="2.06435">
        <ele>54.754</ele>
        <time>2016-11-17T23:05:44Z</time>
      </trkpt>
      <trkpt lat="50.80718" lon="2.06618">
        <ele>62.356</ele>
        <time>2016-11-17T23:06:04Z</time>
      </trkpt>
      <trkpt lat="50.80677" lon="2.06687">
        <ele>68.311</ele>
        <time>2016-11-17T23:06:24Z</time>
      </trkpt>
      <trkpt lat="50.80657" lon="2.06748">
        <ele>73.008</ele>
        <time>2016-11-17T23:06:44Z</time>
      </trkpt>
      <trkpt lat="50.80566" lon="2.06818">
        <ele>83.788</ele>
        <time>2016-11-17T23:07:04Z</time>
      </trkpt>
      <trkpt lat="50.80533" lon="2.06858">
        <ele>88.464</ele>
        <time>2016-11-17T23:07:24Z</time>
      </trkpt>
      <trkpt lat="50.80493" lon="2.06883">
        <ele>91.681</ele>
        <time>2016-11-17T23:07:44Z</time>
      </trkpt>
      <trkpt lat="50.80448" lon="2.06956">
        <ele>94.296</ele>
        <time>2016-11-17T23:08:04Z</time>
      </trkpt>
      <trkpt lat="50.80402" lon="2.07">
        <ele>97.014</ele>
        <time>2016-11-17T23:08:24Z</time>
      </trkpt>
      <trkpt lat="50.80369" lon="2.07083">
        <ele>97.356</ele>
        <time>2016-11-17T23:08:44Z</time>
      </trkpt>
      <trkpt lat="50.80358" lon="2.07162">
        <ele>96.249</ele>
        <time>2016-11-17T23:09:04Z</time>
      </trkpt>
      <trkpt lat="50.80346" lon="2.07489">
        <ele>93.911</ele>
        <time>2016-11-17T23:09:24Z</time>
      </trkpt>
      <trkpt lat="50.80197" lon="2.0761">
        <ele>92.054</ele>
        <time>2016-11-17T23:09:44Z</time>
      </trkpt>
      <trkpt lat="50.80136" lon="2.07637">
        <ele>88.856</ele>
        <time>2016-11-17T23:10:04Z</time>
      </trkpt>
      <trkpt lat="50.80071" lon="2.07627">
        <ele>81.711</ele>
        <time>2016-11-17T23:11:44Z</time>
      </trkpt>
      <trkpt lat="50.80021" lon="2.07658">
        <ele>77.108</ele>
        <time>2016-11-17T23:12:04Z</time>
      </trkpt>
      <trkpt lat="50.7999" lon="2.07725">
        <ele>72.568</ele>
        <time>2016-11-17T23:14:04Z</time>
      </trkpt>
      <trkpt lat="50.7996" lon="2.07823">
        <ele>67.254</ele>
        <time>2016-11-17T23:15:24Z</time>
      </trkpt>
      <trkpt lat="50.79923" lon="2.07914">
        <ele>64.031</ele>
        <time>2016-11-17T23:15:44Z</time>
      </trkpt>
      <trkpt lat="50.79893" lon="2.08106">
        <ele>65.436</ele>
        <time>2016-11-17T23:16:04Z</time>
      </trkpt>
      <trkpt lat="50.79813" lon="2.08354">
        <ele>71.734</ele>
        <time>2016-11-17T23:16:24Z</time>
      </trkpt>
      <trkpt lat="50.79737" lon="2.08478">
        <ele>69.336</ele>
        <time>2016-11-17T23:16:44Z</time>
      </trkpt>
      <trkpt lat="50.79719" lon="2.0853">
        <ele>69.079</ele>
        <time>2016-11-17T23:17:04Z</time>
      </trkpt>
      <trkpt lat="50.79725" lon="2.08603">
        <ele>67.331</ele>
        <time>2016-11-17T23:17:24Z</time>
      </trkpt>
      <trkpt lat="50.79766" lon="2.08735">
        <ele>64.039</ele>
        <time>2016-11-17T23:17:44Z</time>
      </trkpt>
      <trkpt lat="50.79747" lon="2.08917">
        <ele>58.101</ele>
        <time>2016-11-17T23:18:04Z</time>
      </trkpt>
      <trkpt lat="50.79812" lon="2.08989">
        <ele>56.621</ele>
        <time>2016-11-17T23:18:24Z</time>
      </trkpt>
      <trkpt lat="50.79898" lon="2.09067">
        <ele>55.308</ele>
        <time>2016-11-17T23:18:44Z</time>
      </trkpt>
      <trkpt lat="50.79954" lon="2.09102">
        <ele>56.686</ele>
        <time>2016-11-17T23:19:04Z</time>
      </trkpt>
      <trkpt lat="50.80015" lon="2.09218">
        <ele>51.262</ele>
        <time>2016-11-17T23:19:24Z</time>
      </trkpt>
      <trkpt lat="50.80019" lon="2.09275">
        <ele>50.179</ele>
        <time>2016-11-17T23:19:44Z</time>
      </trkpt>
      <trkpt lat="50.79999" lon="2.09294">
        <ele>50.044</ele>
        <time>2016-11-17T23:20:04Z</time>
      </trkpt>
      <trkpt lat="50.79917" lon="2.0941">
        <ele>49.382</ele>
        <time>2016-11-17T23:20:24Z</time>
      </trkpt>
      <trkpt lat="50.80163" lon="2.09915">
        <ele>56.024</ele>
        <time>2016-11-17T23:20:44Z</time>
      </trkpt>
      <trkpt lat="50.80169" lon="2.10057">
        <ele>59.067</ele>
        <time>2016-11-17T23:21:04Z</time>
      </trkpt>
      <trkpt lat="50.80159" lon="2.10418">
        <ele>57.099</ele>
        <time>2016-11-17T23:21:24Z</time>
      </trkpt>
      <trkpt lat="50.80311" lon="2.1072">
        <ele>54.854</ele>
        <time>2016-11-17T23:21:44Z</time>
      </trkpt>
      <trkpt lat="50.80371" lon="2.10755">
        <ele>53.556</ele>
        <time>2016-11-17T23:22:04Z</time>
      </trkpt>
      <trkpt lat="50.80399" lon="2.10733">
        <ele>54.111</ele>
        <time>2016-11-17T23:22:24Z</time>
      </trkpt>
      <trkpt lat="50.80418" lon="2.10605">
        <ele>58.308</ele>
        <time>2016-11-17T23:22:44Z</time>
      </trkpt>
      <trkpt lat="50.80446" lon="2.10569">
        <ele>58.948</ele>
        <time>2016-11-17T23:23:04Z</time>
      </trkpt>
      <trkpt lat="50.80493" lon="2.10576">
        <ele>57.264</ele>
        <time>2016-11-17T23:23:24Z</time>
      </trkpt>
      <trkpt lat="50.80485" lon="2.10542">
        <ele>58.091</ele>
        <time>2016-11-17T23:23:44Z</time>
      </trkpt>
      <trkpt lat="50.80593" lon="2.1041">
        <ele>54.776</ele>
        <time>2016-11-17T23:24:04Z</time>
      </trkpt>
      <trkpt lat="50.80622" lon="2.10346">
        <ele>53.884</ele>
        <time>2016-11-17T23:24:24Z</time>
      </trkpt>
      <trkpt lat="50.80633" lon="2.10306">
        <ele>54.896</ele>
        <time>2016-11-17T23:24:44Z</time>
      </trkpt>
      <trkpt lat="50.80685" lon="2.10257">
        <ele>51.639</ele>
        <time>2016-11-17T23:25:04Z</time>
      </trkpt>
      <trkpt lat="50.80715" lon="2.10257">
        <ele>46.771</ele>
        <time>2016-11-17T23:25:24Z</time>
      </trkpt>
      <trkpt lat="50.80794" lon="2.10366">
        <ele>41.325</ele>
        <time>2016-11-17T23:25:44Z</time>
      </trkpt>
      <trkpt lat="50.80836" lon="2.10402">
        <ele>38.826</ele>
        <time>2016-11-17T23:26:04Z</time>
      </trkpt>
      <trkpt lat="50.80894" lon="2.10476">
        <ele>37.908</ele>
        <time>2016-11-17T23:26:24Z</time>
      </trkpt>
      <trkpt lat="50.80914" lon="2.10516">
        <ele>37.808</ele>
        <time>2016-11-17T23:26:44Z</time>
      </trkpt>
      <trkpt lat="50.80944" lon="2.10555">
        <ele>37.065</ele>
        <time>2016-11-17T23:27:04Z</time>
      </trkpt>
      <trkpt lat="50.80975" lon="2.10637">
        <ele>35.851</ele>
        <time>2016-11-17T23:27:24Z</time>
      </trkpt>
      <trkpt lat="50.81061" lon="2.10821">
        <ele>33.498</ele>
        <time>2016-11-17T23:28:04Z</time>
      </trkpt>
      <trkpt lat="50.81131" lon="2.10743">
        <ele>32.053</ele>
        <time>2016-11-17T23:28:24Z</time>
      </trkpt>
      <trkpt lat="50.81348" lon="2.11241">
        <ele>28.511</ele>
        <time>2016-11-17T23:28:44Z</time>
      </trkpt>
      <trkpt lat="50.81351" lon="2.11251">
        <ele>28.333</ele>
        <time>2016-11-17T23:29:04Z</time>
      </trkpt>
      <trkpt lat="50.81378" lon="2.11418">
        <ele>27.076</ele>
        <time>2016-11-17T23:29:24Z</time>
      </trkpt>
      <trkpt lat="50.81411" lon="2.11506">
        <ele>28.098</ele>
        <time>2016-11-17T23:29:44Z</time>
      </trkpt>
      <trkpt lat="50.81451" lon="2.11688">
        <ele>26.888</ele>
        <time>2016-11-17T23:30:04Z</time>
      </trkpt>
      <trkpt lat="50.81477" lon="2.11714">
        <ele>25.924</ele>
        <time>2016-11-17T23:30:24Z</time>
      </trkpt>
      <trkpt lat="50.81555" lon="2.11688">
        <ele>27.026</ele>
        <time>2016-11-17T23:30:44Z</time>
      </trkpt>
      <trkpt lat="50.81591" lon="2.11706">
        <ele>27.008</ele>
        <time>2016-11-17T23:31:04Z</time>
      </trkpt>
      <trkpt lat="50.8163" lon="2.11761">
        <ele>26.351</ele>
        <time>2016-11-17T23:31:24Z</time>
      </trkpt>
      <trkpt lat="50.81724" lon="2.11798">
        <ele>28.137</ele>
        <time>2016-11-17T23:31:44Z</time>
      </trkpt>
      <trkpt lat="50.81857" lon="2.11774">
        <ele>36.844</ele>
        <time>2016-11-17T23:32:04Z</time>
      </trkpt>
      <trkpt lat="50.81892" lon="2.11744">
        <ele>40.369</ele>
        <time>2016-11-17T23:32:24Z</time>
      </trkpt>
      <trkpt lat="50.81948" lon="2.11759">
        <ele>46.147</ele>
        <time>2016-11-17T23:32:44Z</time>
      </trkpt>
      <trkpt lat="50.81983" lon="2.11755">
        <ele>49.829</ele>
        <time>2016-11-17T23:33:04Z</time>
      </trkpt>
      <trkpt lat="50.82212" lon="2.11751">
        <ele>59.632</ele>
        <time>2016-11-17T23:33:24Z</time>
      </trkpt>
      <trkpt lat="50.82293" lon="2.11783">
        <ele>60.974</ele>
        <time>2016-11-17T23:33:44Z</time>
      </trkpt>
      <trkpt lat="50.82303" lon="2.1186">
        <ele>60.844</ele>
        <time>2016-11-17T23:34:04Z</time>
      </trkpt>
      <trkpt lat="50.82379" lon="2.1207">
        <ele>71.905</ele>
        <time>2016-11-17T23:34:24Z</time>
      </trkpt>
      <trkpt lat="50.82479" lon="2.12263">
        <ele>80.415</ele>
        <time>2016-11-17T23:34:44Z</time>
      </trkpt>
      <trkpt lat="50.82643" lon="2.1251">
        <ele>92.508</ele>
        <time>2016-11-17T23:35:04Z</time>
      </trkpt>
      <trkpt lat="50.82761" lon="2.12611">
        <ele>93.427</ele>
        <time>2016-11-17T23:35:24Z</time>
      </trkpt>
      <trkpt lat="50.82861" lon="2.12532">
        <ele>93.323</ele>
        <time>2016-11-17T23:35:44Z</time>
      </trkpt>
      <trkpt lat="50.82948" lon="2.12356">
        <ele>88.03</ele>
        <time>2016-11-17T23:36:24Z</time>
      </trkpt>
      <trkpt lat="50.82999" lon="2.12328">
        <ele>85.845</ele>
        <time>2016-11-17T23:36:44Z</time>
      </trkpt>
      <trkpt lat="50.83088" lon="2.12304">
        <ele>82.953</ele>
        <time>2016-11-17T23:37:24Z</time>
      </trkpt>
      <trkpt lat="50.8314" lon="2.12242">
        <ele>81.815</ele>
        <time>2016-11-17T23:37:44Z</time>
      </trkpt>
      <trkpt lat="50.8318" lon="2.12158">
        <ele>79.918</ele>
        <time>2016-11-17T23:38:04Z</time>
      </trkpt>
      <trkpt lat="50.83211" lon="2.12113">
        <ele>79.38</ele>
        <time>2016-11-17T23:38:24Z</time>
      </trkpt>
      <trkpt lat="50.83277" lon="2.12085">
        <ele>79.299</ele>
        <time>2016-11-17T23:38:44Z</time>
      </trkpt>
      <trkpt lat="50.83327" lon="2.12025">
        <ele>78.707</ele>
        <time>2016-11-17T23:39:04Z</time>
      </trkpt>
      <trkpt lat="50.83383" lon="2.11897">
        <ele>74.727</ele>
        <time>2016-11-17T23:39:44Z</time>
      </trkpt>
      <trkpt lat="50.83401" lon="2.11894">
        <ele>75.108</ele>
        <time>2016-11-17T23:40:04Z</time>
      </trkpt>
      <trkpt lat="50.83386" lon="2.11957">
        <ele>77.952</ele>
        <time>2016-11-17T23:40:24Z</time>
      </trkpt>
      <trkpt lat="50.83411" lon="2.12229">
        <ele>79.248</ele>
        <time>2016-11-17T23:40:44Z</time>
      </trkpt>
      <trkpt lat="50.83482" lon="2.12444">
        <ele>75.635</ele>
        <time>2016-11-17T23:41:04Z</time>
      </trkpt>
      <trkpt lat="50.83342" lon="2.12457">
        <ele>80.27</ele>
        <time>2016-11-17T23:41:24Z</time>
      </trkpt>
      <trkpt lat="50.83249" lon="2.12557">
        <ele>84.128</ele>
        <time>2016-11-17T23:41:44Z</time>
      </trkpt>
      <trkpt lat="50.83224" lon="2.12639">
        <ele>88.97</ele>
        <time>2016-11-17T23:42:04Z</time>
      </trkpt>
      <trkpt lat="50.83394" lon="2.14042">
        <ele>88.813</ele>
        <time>2016-11-17T23:42:24Z</time>
      </trkpt>
      <trkpt lat="50.83424" lon="2.14283">
        <ele>84.515</ele>
        <time>2016-11-17T23:42:44Z</time>
      </trkpt>
      <trkpt lat="50.83445" lon="2.14592">
        <ele>82.694</ele>
        <time>2016-11-17T23:43:04Z</time>
      </trkpt>
      <trkpt lat="50.83155" lon="2.16308">
        <ele>78.857</ele>
        <time>2016-11-17T23:43:24Z</time>
      </trkpt>
      <trkpt lat="50.83143" lon="2.16426">
        <ele>81.222</ele>
        <time>2016-11-17T23:43:44Z</time>
      </trkpt>
      <trkpt lat="50.83126" lon="2.16546">
        <ele>85.008</ele>
        <time>2016-11-17T23:44:04Z</time>
      </trkpt>
      <trkpt lat="50.83117" lon="2.1695">
        <ele>81.292</ele>
        <time>2016-11-17T23:44:24Z</time>
      </trkpt>
      <trkpt lat="50.83075" lon="2.17106">
        <ele>82.638</ele>
        <time>2016-11-17T23:44:44Z</time>
      </trkpt>
      <trkpt lat="50.8326" lon="2.17677">
        <ele>78.885</ele>
        <time>2016-11-17T23:45:04Z</time>
      </trkpt>
      <trkpt lat="50.83337" lon="2.19055">
        <ele>64.71</ele>
        <time>2016-11-17T23:45:24Z</time>
      </trkpt>
      <trkpt lat="50.83406" lon="2.19226">
        <ele>61.038</ele>
        <time>2016-11-17T23:45:44Z</time>
      </trkpt>
      <trkpt lat="50.83468" lon="2.19581">
        <ele>47.02</ele>
        <time>2016-11-17T23:46:04Z</time>
      </trkpt>
      <trkpt lat="50.83415" lon="2.19908">
        <ele>21.223</ele>
        <time>2016-11-17T23:46:24Z</time>
      </trkpt>
      <trkpt lat="50.83541" lon="2.20005">
        <ele>14.245</ele>
        <time>2016-11-17T23:46:44Z</time>
      </trkpt>
      <trkpt lat="50.83561" lon="2.20047">
        <ele>9.344</ele>
        <time>2016-11-17T23:47:04Z</time>
      </trkpt>
      <trkpt lat="50.83551" lon="2.20086">
        <ele>9.105</ele>
        <time>2016-11-17T23:47:24Z</time>
      </trkpt>
      <trkpt lat="50.83504" lon="2.20117">
        <ele>6.915</ele>
        <time>2016-11-17T23:47:44Z</time>
      </trkpt>
      <trkpt lat="50.83459" lon="2.20136">
        <ele>6.608</ele>
        <time>2016-11-17T23:48:04Z</time>
      </trkpt>
      <trkpt lat="50.83415" lon="2.20133">
        <ele>6.497</ele>
        <time>2016-11-17T23:48:24Z</time>
      </trkpt>
      <trkpt lat="50.83353" lon="2.20106">
        <ele>5.643</ele>
        <time>2016-11-17T23:48:44Z</time>
      </trkpt>
      <trkpt lat="50.83318" lon="2.20138">
        <ele>4.05</ele>
        <time>2016-11-17T23:49:24Z</time>
      </trkpt>
      <trkpt lat="50.83239" lon="2.20812">
        <ele>3.375</ele>
        <time>2016-11-17T23:49:44Z</time>
      </trkpt>
      <trkpt lat="50.83107" lon="2.20905">
        <ele>4.463</ele>
        <time>2016-11-17T23:50:04Z</time>
      </trkpt>
      <trkpt lat="50.8307" lon="2.20936">
        <ele>3.795</ele>
        <time>2016-11-17T23:53:24Z</time>
      </trkpt>
      <trkpt lat="50.82975" lon="2.20978">
        <ele>4.068</ele>
        <time>2016-11-17T23:54:44Z</time>
      </trkpt>
      <trkpt lat="50.8308" lon="2.21088">
        <ele>6.07</ele>
        <time>2016-11-17T23:55:04Z</time>
      </trkpt>
      <trkpt lat="50.83207" lon="2.21121">
        <ele>7.029</ele>
        <time>2016-11-17T23:57:04Z</time>
      </trkpt>
    </trkseg>
  </trk>
</gpx>